DAL1775 KMCO-GOBD
Flight info
| Callsign | DAL1775 |
|---|---|
| Flight time | 6h 58m |
| Altitude | 39000 |
| Route | MZULO3 LENDS M203 SNAGY 2960N 2957N 2950N 2945N 2842N 2740N 2434N ULTEM UR976 LUMPO R976 LIGOV |
| Aircraft | A359/H-SDE2E3GHIJ3J4J5LM1ORWXY/LB1D1 |
Departure
| Time | 2026-04-25 12:57 |
|---|---|
| Airport | Orlando International Airport (KMCO) |
Arrival
| Time | 2026-04-25 19:55 |
|---|---|
| Airport | Blaise Diagne International Airport (GOBD) |
| Time | Latitude | Longitude | Altitude | Speed | Heading |
|---|---|---|---|---|---|
| 2026-04-25 12:33 | 28.42504 | -81.30015 | 106 ft | 0 kts | 357° |
| 2026-04-25 12:33 | 28.42511 | -81.30066 | 109 ft | 0 kts | 24° |
| 2026-04-25 12:47 | 28.42501 | -81.30070 | 107 ft | 4 kts | 53° |
| 2026-04-25 12:47 | 28.42485 | -81.30085 | 106 ft | 4 kts | 33° |
| 2026-04-25 12:48 | 28.42464 | -81.30104 | 106 ft | 4 kts | 53° |
| 2026-04-25 12:48 | 28.42453 | -81.30129 | 105 ft | 4 kts | 94° |
| 2026-04-25 12:48 | 28.42455 | -81.30141 | 105 ft | 0 kts | 112° |
| 2026-04-25 12:50 | 28.42449 | -81.30138 | 106 ft | 3 kts | 149° |
| 2026-04-25 12:51 | 28.42432 | -81.30135 | 107 ft | 0 kts | 179° |
| 2026-04-25 12:51 | 28.42405 | -81.30132 | 108 ft | 6 kts | 172° |
| 2026-04-25 12:51 | 28.42368 | -81.30092 | 108 ft | 15 kts | 112° |
| 2026-04-25 12:52 | 28.42359 | -81.29934 | 107 ft | 20 kts | 90° |
| 2026-04-25 12:52 | 28.42410 | -81.29804 | 106 ft | 18 kts | 22° |
| 2026-04-25 12:52 | 28.42537 | -81.29794 | 108 ft | 19 kts | 360° |
| 2026-04-25 12:52 | 28.42670 | -81.29795 | 109 ft | 20 kts | 359° |
| 2026-04-25 12:53 | 28.42809 | -81.29797 | 105 ft | 20 kts | 359° |
| 2026-04-25 12:53 | 28.42953 | -81.29799 | 107 ft | 21 kts | 359° |
| 2026-04-25 12:53 | 28.43102 | -81.29801 | 108 ft | 22 kts | 359° |
| 2026-04-25 12:53 | 28.43253 | -81.29802 | 109 ft | 20 kts | 2° |
| 2026-04-25 12:54 | 28.43277 | -81.29799 | 108 ft | 0 kts | 6° |
| 2026-04-25 12:54 | 28.43317 | -81.29801 | 108 ft | 10 kts | 357° |
| 2026-04-25 12:54 | 28.43382 | -81.29803 | 108 ft | 10 kts | 5° |
| 2026-04-25 12:54 | 28.43434 | -81.29762 | 107 ft | 9 kts | 64° |
| 2026-04-25 12:55 | 28.43439 | -81.29708 | 108 ft | 0 kts | 88° |
| 2026-04-25 12:55 | 28.43440 | -81.29693 | 110 ft | 5 kts | 88° |
| 2026-04-25 12:55 | 28.43437 | -81.29626 | 109 ft | 9 kts | 113° |
| 2026-04-25 12:56 | 28.43390 | -81.29592 | 110 ft | 9 kts | 163° |
| 2026-04-25 12:56 | 28.43359 | -81.29587 | 111 ft | 0 kts | 177° |
| 2026-04-25 12:56 | 28.43357 | -81.29587 | 111 ft | 3 kts | 177° |
| 2026-04-25 12:56 | 28.43159 | -81.29584 | 111 ft | 69 kts | 179° |
| 2026-04-25 12:57 | 28.42386 | -81.29576 | 105 ft | 151 kts | 180° |
| 2026-04-25 12:57 | 28.41182 | -81.29560 | 543 ft | 186 kts | 179° |
| 2026-04-25 12:57 | 28.39859 | -81.29537 | 1431 ft | 194 kts | 179° |
| 2026-04-25 12:57 | 28.38500 | -81.29451 | 2053 ft | 192 kts | 173° |
| 2026-04-25 12:58 | 28.37255 | -81.29065 | 2725 ft | 180 kts | 156° |
| 2026-04-25 12:58 | 28.36171 | -81.28362 | 3130 ft | 186 kts | 146° |
| 2026-04-25 12:58 | 28.35121 | -81.27448 | 3441 ft | 192 kts | 137° |
| 2026-04-25 12:58 | 28.34197 | -81.26352 | 3881 ft | 193 kts | 131° |
| 2026-04-25 12:59 | 28.33362 | -81.25150 | 4278 ft | 196 kts | 124° |
| 2026-04-25 12:59 | 28.32709 | -81.23804 | 4766 ft | 195 kts | 110° |
| 2026-04-25 12:59 | 28.32504 | -81.22314 | 5216 ft | 190 kts | 82° |
| 2026-04-25 12:59 | 28.32963 | -81.20949 | 5662 ft | 186 kts | 52° |
| 2026-04-25 13:00 | 28.33752 | -81.19813 | 6007 ft | 190 kts | 51° |
| 2026-04-25 13:00 | 28.34026 | -81.19405 | 6129 ft | 191 kts | 53° |
| 2026-04-25 13:00 | 28.35283 | -81.17287 | 6738 ft | 197 kts | 59° |
| 2026-04-25 13:00 | 28.35876 | -81.15852 | 7126 ft | 200 kts | 66° |
| 2026-04-25 13:01 | 28.36388 | -81.14366 | 7457 ft | 206 kts | 67° |
| 2026-04-25 13:01 | 28.36928 | -81.12838 | 7700 ft | 216 kts | 66° |
| 2026-04-25 13:01 | 28.37515 | -81.11227 | 7999 ft | 225 kts | 65° |
| 2026-04-25 13:01 | 28.38142 | -81.09557 | 8282 ft | 237 kts | 65° |
| 2026-04-25 13:02 | 28.38826 | -81.07791 | 8495 ft | 251 kts | 64° |
| 2026-04-25 13:02 | 28.39560 | -81.05950 | 8833 ft | 260 kts | 64° |
| 2026-04-25 13:02 | 28.40323 | -81.04038 | 9138 ft | 272 kts | 64° |
| 2026-04-25 13:02 | 28.41089 | -81.02022 | 9442 ft | 284 kts | 66° |
| 2026-04-25 13:03 | 28.41754 | -80.99864 | 9747 ft | 296 kts | 72° |
| 2026-04-25 13:03 | 28.42343 | -80.97584 | 10136 ft | 303 kts | 71° |
| 2026-04-25 13:03 | 28.43045 | -80.95286 | 10417 ft | 314 kts | 66° |
| 2026-04-25 13:03 | 28.43898 | -80.92952 | 10657 ft | 326 kts | 65° |
| 2026-04-25 13:04 | 28.44793 | -80.90530 | 10904 ft | 338 kts | 66° |
| 2026-04-25 13:04 | 28.45706 | -80.88017 | 11126 ft | 349 kts | 66° |
| 2026-04-25 13:04 | 28.46638 | -80.85420 | 11348 ft | 360 kts | 66° |
| 2026-04-25 13:04 | 28.47521 | -80.82720 | 11589 ft | 370 kts | 73° |
| 2026-04-25 13:05 | 28.48000 | -80.79821 | 11963 ft | 375 kts | 81° |
| 2026-04-25 13:05 | 28.48329 | -80.76868 | 12363 ft | 379 kts | 82° |
| 2026-04-25 13:05 | 28.48651 | -80.73884 | 12781 ft | 382 kts | 82° |
| 2026-04-25 13:05 | 28.48978 | -80.70879 | 13170 ft | 385 kts | 82° |
| 2026-04-25 13:06 | 28.49311 | -80.67851 | 13562 ft | 387 kts | 82° |
| 2026-04-25 13:06 | 28.49646 | -80.64809 | 13914 ft | 390 kts | 81° |
| 2026-04-25 13:06 | 28.49985 | -80.61740 | 14232 ft | 393 kts | 81° |
| 2026-04-25 13:06 | 28.50326 | -80.58649 | 14574 ft | 395 kts | 81° |
| 2026-04-25 13:07 | 28.50668 | -80.55539 | 14930 ft | 398 kts | 81° |
| 2026-04-25 13:07 | 28.51012 | -80.52411 | 15292 ft | 401 kts | 81° |
| 2026-04-25 13:07 | 28.51359 | -80.49254 | 15620 ft | 404 kts | 81° |
| 2026-04-25 13:07 | 28.51707 | -80.46078 | 15978 ft | 406 kts | 81° |
| 2026-04-25 13:08 | 28.52057 | -80.42878 | 16330 ft | 409 kts | 81° |
| 2026-04-25 13:08 | 28.52289 | -80.40747 | 16560 ft | 411 kts | 81° |
| 2026-04-25 13:08 | 28.52642 | -80.37511 | 16907 ft | 414 kts | 81° |
| 2026-04-25 13:08 | 28.52995 | -80.34258 | 17256 ft | 416 kts | 81° |
| 2026-04-25 13:09 | 28.53368 | -80.30980 | 17606 ft | 418 kts | 79° |
| 2026-04-25 13:09 | 28.54097 | -80.27783 | 17920 ft | 418 kts | 67° |
| 2026-04-25 13:09 | 28.55204 | -80.24724 | 18268 ft | 419 kts | 64° |
| 2026-04-25 13:09 | 28.56752 | -80.20688 | 18666 ft | 422 kts | 64° |
| 2026-04-25 13:10 | 28.57545 | -80.18616 | 18876 ft | 423 kts | 64° |
| 2026-04-25 13:10 | 28.58717 | -80.15539 | 19231 ft | 425 kts | 64° |
| 2026-04-25 13:10 | 28.59891 | -80.12448 | 19518 ft | 426 kts | 68° |
| 2026-04-25 13:10 | 28.61014 | -80.09319 | 19775 ft | 428 kts | 65° |
| 2026-04-25 13:11 | 28.62176 | -80.06196 | 20090 ft | 429 kts | 65° |
| 2026-04-25 13:11 | 28.63348 | -80.03076 | 20394 ft | 430 kts | 65° |
| 2026-04-25 13:11 | 28.64529 | -79.99938 | 20694 ft | 431 kts | 65° |
| 2026-04-25 13:11 | 28.65713 | -79.96796 | 20977 ft | 433 kts | 65° |
| 2026-04-25 13:12 | 28.66899 | -79.93646 | 21273 ft | 434 kts | 65° |
| 2026-04-25 13:12 | 28.68091 | -79.90477 | 21538 ft | 436 kts | 65° |
| 2026-04-25 13:12 | 28.69283 | -79.87298 | 21811 ft | 437 kts | 66° |
| 2026-04-25 13:12 | 28.70075 | -79.85187 | 21998 ft | 438 kts | 66° |
| 2026-04-25 13:13 | 28.71680 | -79.80913 | 22361 ft | 440 kts | 66° |
| 2026-04-25 13:13 | 28.72883 | -79.77712 | 22602 ft | 441 kts | 66° |
| 2026-04-25 13:13 | 28.74094 | -79.74486 | 22840 ft | 443 kts | 66° |
| 2026-04-25 13:13 | 28.75293 | -79.71288 | 23095 ft | 445 kts | 66° |
| 2026-04-25 13:14 | 28.76507 | -79.68046 | 23343 ft | 446 kts | 66° |
| 2026-04-25 13:14 | 28.77726 | -79.64788 | 23580 ft | 447 kts | 66° |
| 2026-04-25 13:14 | 28.78946 | -79.61522 | 23797 ft | 449 kts | 66° |
| 2026-04-25 13:14 | 28.80175 | -79.58248 | 23981 ft | 450 kts | 65° |
| 2026-04-25 13:15 | 28.81643 | -79.55106 | 24173 ft | 449 kts | 56° |
| 2026-04-25 13:15 | 28.83410 | -79.52175 | 24421 ft | 448 kts | 53° |
| 2026-04-25 13:15 | 28.85230 | -79.49290 | 24655 ft | 448 kts | 53° |
| 2026-04-25 13:15 | 28.87052 | -79.46405 | 24868 ft | 449 kts | 53° |
| 2026-04-25 13:16 | 28.88878 | -79.43505 | 25066 ft | 450 kts | 53° |
| 2026-04-25 13:16 | 28.90701 | -79.40599 | 25226 ft | 452 kts | 53° |
| 2026-04-25 13:16 | 28.92539 | -79.37673 | 25428 ft | 454 kts | 53° |
| 2026-04-25 13:16 | 28.94379 | -79.34743 | 25611 ft | 454 kts | 53° |
| 2026-04-25 13:17 | 28.96220 | -79.31806 | 25832 ft | 455 kts | 53° |
| 2026-04-25 13:17 | 28.98064 | -79.28862 | 26037 ft | 456 kts | 53° |
| 2026-04-25 13:17 | 28.99911 | -79.25908 | 26236 ft | 457 kts | 54° |
| 2026-04-25 13:17 | 29.01759 | -79.22945 | 26450 ft | 459 kts | 54° |
| 2026-04-25 13:18 | 29.03614 | -79.19972 | 26646 ft | 460 kts | 54° |
| 2026-04-25 13:18 | 29.05473 | -79.16997 | 26872 ft | 461 kts | 54° |
| 2026-04-25 13:18 | 29.07337 | -79.14017 | 27086 ft | 462 kts | 52° |
| 2026-04-25 13:18 | 29.09227 | -79.11044 | 27320 ft | 463 kts | 52° |
| 2026-04-25 13:19 | 29.11115 | -79.08069 | 27604 ft | 463 kts | 52° |
| 2026-04-25 13:19 | 29.12998 | -79.05078 | 27862 ft | 464 kts | 52° |
| 2026-04-25 13:19 | 29.14869 | -79.02053 | 28033 ft | 467 kts | 54° |
| 2026-04-25 13:19 | 29.16101 | -79.00035 | 28161 ft | 468 kts | 54° |
| 2026-04-25 13:20 | 29.18603 | -78.95951 | 28468 ft | 469 kts | 54° |
| 2026-04-25 13:20 | 29.20488 | -78.92894 | 28697 ft | 471 kts | 54° |
| 2026-04-25 13:20 | 29.22383 | -78.89828 | 28919 ft | 472 kts | 54° |
| 2026-04-25 13:20 | 29.24283 | -78.86757 | 29148 ft | 473 kts | 54° |
| 2026-04-25 13:21 | 29.26191 | -78.83671 | 29377 ft | 475 kts | 54° |
| 2026-04-25 13:21 | 29.28098 | -78.80583 | 29600 ft | 476 kts | 54° |
| 2026-04-25 13:21 | 29.30014 | -78.77479 | 29836 ft | 478 kts | 54° |
| 2026-04-25 13:21 | 29.31938 | -78.74377 | 30062 ft | 479 kts | 52° |
| 2026-04-25 13:22 | 29.33890 | -78.71282 | 30273 ft | 480 kts | 52° |
| 2026-04-25 13:22 | 29.35848 | -78.68165 | 30491 ft | 482 kts | 52° |
| 2026-04-25 13:22 | 29.37803 | -78.65032 | 30634 ft | 485 kts | 52° |
| 2026-04-25 13:23 | 29.41745 | -78.58727 | 31042 ft | 488 kts | 52° |
| 2026-04-25 13:23 | 29.43729 | -78.55565 | 31244 ft | 490 kts | 52° |
| 2026-04-25 13:23 | 29.45722 | -78.52373 | 31447 ft | 492 kts | 54° |
| 2026-04-25 13:23 | 29.47513 | -78.49021 | 31643 ft | 494 kts | 60° |
| 2026-04-25 13:24 | 29.48971 | -78.45442 | 31837 ft | 497 kts | 68° |
| 2026-04-25 13:24 | 29.49967 | -78.41628 | 32002 ft | 501 kts | 77° |
| 2026-04-25 13:24 | 29.50478 | -78.37662 | 32188 ft | 504 kts | 83° |
| 2026-04-25 13:24 | 29.50683 | -78.33648 | 32397 ft | 504 kts | 87° |
| 2026-04-25 13:25 | 29.50721 | -78.29624 | 32708 ft | 503 kts | 89° |
| 2026-04-25 13:25 | 29.50691 | -78.25611 | 32996 ft | 502 kts | 90° |
| 2026-04-25 13:25 | 29.50649 | -78.21655 | 33271 ft | 502 kts | 90° |
| 2026-04-25 13:25 | 29.50619 | -78.17657 | 33552 ft | 501 kts | 89° |
| 2026-04-25 13:26 | 29.50606 | -78.13662 | 33826 ft | 500 kts | 89° |
| 2026-04-25 13:26 | 29.50609 | -78.09680 | 34082 ft | 499 kts | 89° |
| 2026-04-25 13:26 | 29.50622 | -78.05691 | 34292 ft | 499 kts | 89° |
| 2026-04-25 13:26 | 29.50639 | -78.01712 | 34493 ft | 499 kts | 89° |
| 2026-04-25 13:27 | 29.50657 | -77.97732 | 34698 ft | 499 kts | 88° |
| 2026-04-25 13:27 | 29.50674 | -77.93745 | 34913 ft | 499 kts | 89° |
| 2026-04-25 13:27 | 29.50690 | -77.89762 | 35135 ft | 498 kts | 89° |
| 2026-04-25 13:27 | 29.50703 | -77.85784 | 35342 ft | 498 kts | 93° |
| 2026-04-25 13:28 | 29.50693 | -77.81813 | 35426 ft | 498 kts | 84° |
| 2026-04-25 13:28 | 29.50954 | -77.73849 | 35597 ft | 500 kts | 84° |
| 2026-04-25 13:28 | 29.51213 | -77.69888 | 35835 ft | 495 kts | 72° |
| 2026-04-25 13:29 | 29.51751 | -77.65985 | 35794 ft | 497 kts | 81° |
| 2026-04-25 13:29 | 29.52146 | -77.62034 | 35948 ft | 499 kts | 83° |
| 2026-04-25 13:29 | 29.52486 | -77.58071 | 36193 ft | 498 kts | 83° |
| 2026-04-25 13:30 | 29.53236 | -77.50175 | 36606 ft | 497 kts | 82° |
| 2026-04-25 13:30 | 29.53666 | -77.46236 | 36833 ft | 497 kts | 81° |
| 2026-04-25 13:30 | 29.54121 | -77.42313 | 37010 ft | 496 kts | 81° |
| 2026-04-25 13:31 | 29.55065 | -77.34458 | 37396 ft | 496 kts | 80° |
| 2026-04-25 13:31 | 29.55540 | -77.30538 | 37585 ft | 496 kts | 80° |
| 2026-04-25 13:31 | 29.56012 | -77.26615 | 37755 ft | 496 kts | 80° |
| 2026-04-25 13:31 | 29.56481 | -77.22694 | 37939 ft | 496 kts | 80° |
| 2026-04-25 13:32 | 29.56949 | -77.18765 | 38061 ft | 496 kts | 81° |
| 2026-04-25 13:32 | 29.57409 | -77.14840 | 38194 ft | 497 kts | 81° |
| 2026-04-25 13:32 | 29.57870 | -77.10905 | 38358 ft | 496 kts | 81° |
| 2026-04-25 13:32 | 29.58333 | -77.06978 | 38500 ft | 496 kts | 81° |
| 2026-04-25 13:33 | 29.58796 | -77.03049 | 38652 ft | 496 kts | 81° |
| 2026-04-25 13:33 | 29.59253 | -76.99168 | 38757 ft | 496 kts | 81° |
| 2026-04-25 13:33 | 29.59713 | -76.95239 | 38844 ft | 497 kts | 81° |
| 2026-04-25 13:34 | 29.60599 | -76.87359 | 38962 ft | 500 kts | 84° |
| 2026-04-25 13:34 | 29.60912 | -76.79362 | 39002 ft | 502 kts | 88° |
| 2026-04-25 13:35 | 29.61103 | -76.71344 | 39002 ft | 501 kts | 87° |
| 2026-04-25 13:35 | 29.61331 | -76.63339 | 39004 ft | 501 kts | 87° |
| 2026-04-25 13:36 | 29.61549 | -76.55330 | 39004 ft | 501 kts | 87° |
| 2026-04-25 13:36 | 29.61749 | -76.47327 | 39010 ft | 501 kts | 88° |
| 2026-04-25 13:37 | 29.61929 | -76.39338 | 39010 ft | 500 kts | 88° |
| 2026-04-25 13:37 | 29.62122 | -76.31350 | 39009 ft | 500 kts | 88° |
| 2026-04-25 13:38 | 29.62311 | -76.23364 | 39008 ft | 500 kts | 88° |
| 2026-04-25 13:38 | 29.62492 | -76.15381 | 39015 ft | 500 kts | 88° |
| 2026-04-25 13:39 | 29.62651 | -76.07400 | 39015 ft | 499 kts | 89° |
| 2026-04-25 13:39 | 29.62801 | -75.99430 | 39018 ft | 498 kts | 88° |
| 2026-04-25 13:40 | 29.62982 | -75.91465 | 39017 ft | 498 kts | 88° |
| 2026-04-25 13:40 | 29.63153 | -75.83507 | 39017 ft | 498 kts | 88° |
| 2026-04-25 13:41 | 29.63302 | -75.75560 | 39017 ft | 495 kts | 90° |
| 2026-04-25 13:41 | 29.63434 | -75.67681 | 39018 ft | 492 kts | 89° |
| 2026-04-25 13:42 | 29.63589 | -75.59818 | 39018 ft | 492 kts | 89° |
| 2026-04-25 13:42 | 29.63735 | -75.51965 | 39018 ft | 492 kts | 89° |
| 2026-04-25 13:43 | 29.63865 | -75.44096 | 39017 ft | 492 kts | 89° |
| 2026-04-25 13:43 | 29.63987 | -75.36238 | 39017 ft | 491 kts | 90° |
| 2026-04-25 13:44 | 29.64105 | -75.28387 | 39017 ft | 491 kts | 89° |
| 2026-04-25 13:44 | 29.64236 | -75.20537 | 39017 ft | 491 kts | 89° |
| 2026-04-25 13:45 | 29.64333 | -75.12683 | 39016 ft | 491 kts | 90° |
| 2026-04-25 13:45 | 29.64447 | -75.04832 | 39015 ft | 491 kts | 89° |
| 2026-04-25 13:46 | 29.64567 | -74.96985 | 39017 ft | 491 kts | 90° |
| 2026-04-25 13:46 | 29.64667 | -74.89135 | 39018 ft | 491 kts | 90° |
| 2026-04-25 13:47 | 29.64730 | -74.81282 | 39018 ft | 491 kts | 90° |
| 2026-04-25 13:47 | 29.64811 | -74.73431 | 39020 ft | 491 kts | 89° |
| 2026-04-25 13:48 | 29.64928 | -74.65585 | 39019 ft | 491 kts | 90° |
| 2026-04-25 13:48 | 29.65028 | -74.57731 | 39026 ft | 491 kts | 90° |
| 2026-04-25 13:49 | 29.65109 | -74.49879 | 39026 ft | 491 kts | 90° |
| 2026-04-25 13:49 | 29.65159 | -74.42038 | 39027 ft | 491 kts | 90° |
| 2026-04-25 13:50 | 29.65235 | -74.34184 | 39027 ft | 491 kts | 90° |
| 2026-04-25 13:50 | 29.65309 | -74.26377 | 39029 ft | 492 kts | 90° |
| 2026-04-25 13:51 | 29.65372 | -74.18517 | 39028 ft | 492 kts | 90° |
| 2026-04-25 13:51 | 29.65427 | -74.10654 | 39028 ft | 492 kts | 90° |
| 2026-04-25 13:52 | 29.65477 | -74.02792 | 39031 ft | 492 kts | 90° |
| 2026-04-25 13:52 | 29.65522 | -73.94922 | 39032 ft | 492 kts | 90° |
| 2026-04-25 13:53 | 29.65562 | -73.87048 | 39031 ft | 493 kts | 90° |
| 2026-04-25 13:53 | 29.65598 | -73.79167 | 39034 ft | 493 kts | 90° |
| 2026-04-25 13:54 | 29.65630 | -73.71290 | 39036 ft | 493 kts | 90° |
| 2026-04-25 13:54 | 29.65657 | -73.63407 | 39028 ft | 493 kts | 90° |
| 2026-04-25 13:55 | 29.65675 | -73.56854 | 39031 ft | 494 kts | 90° |
| 2026-04-25 13:55 | 29.65693 | -73.48903 | 39032 ft | 494 kts | 90° |
| 2026-04-25 13:56 | 29.65707 | -73.41056 | 39039 ft | 494 kts | 90° |
| 2026-04-25 13:56 | 29.65713 | -73.33164 | 39040 ft | 494 kts | 91° |
| 2026-04-25 13:57 | 29.65717 | -73.25257 | 39036 ft | 495 kts | 91° |
| 2026-04-25 13:57 | 29.65719 | -73.17349 | 39039 ft | 495 kts | 91° |
| 2026-04-25 13:58 | 29.65707 | -73.09425 | 39037 ft | 495 kts | 91° |
| 2026-04-25 13:58 | 29.65700 | -73.01509 | 39029 ft | 495 kts | 91° |
| 2026-04-25 13:59 | 29.65689 | -72.93586 | 39039 ft | 495 kts | 91° |
| 2026-04-25 13:59 | 29.65660 | -72.85657 | 39042 ft | 497 kts | 91° |
| 2026-04-25 14:00 | 29.65637 | -72.77706 | 39044 ft | 497 kts | 91° |
| 2026-04-25 14:00 | 29.65616 | -72.69760 | 39047 ft | 497 kts | 91° |
| 2026-04-25 14:01 | 29.65579 | -72.61815 | 39045 ft | 497 kts | 91° |
| 2026-04-25 14:01 | 29.65538 | -72.53865 | 39047 ft | 498 kts | 91° |
| 2026-04-25 14:02 | 29.65500 | -72.45897 | 39048 ft | 498 kts | 91° |
| 2026-04-25 14:02 | 29.65455 | -72.37929 | 39038 ft | 498 kts | 91° |
| 2026-04-25 14:03 | 29.65395 | -72.29957 | 39043 ft | 499 kts | 91° |
| 2026-04-25 14:03 | 29.65337 | -72.21994 | 39043 ft | 499 kts | 91° |
| 2026-04-25 14:04 | 29.65279 | -72.13998 | 39045 ft | 500 kts | 91° |
| 2026-04-25 14:04 | 29.65215 | -72.06059 | 39046 ft | 500 kts | 91° |
| 2026-04-25 14:05 | 29.65132 | -71.98059 | 39042 ft | 500 kts | 91° |
| 2026-04-25 14:05 | 29.65059 | -71.90062 | 39036 ft | 500 kts | 91° |
| 2026-04-25 14:06 | 29.64983 | -71.82058 | 39044 ft | 502 kts | 91° |
| 2026-04-25 14:06 | 29.64888 | -71.74033 | 39045 ft | 502 kts | 91° |
| 2026-04-25 14:07 | 29.64797 | -71.66005 | 39043 ft | 502 kts | 91° |
| 2026-04-25 14:07 | 29.64707 | -71.57980 | 39051 ft | 502 kts | 91° |
| 2026-04-25 14:08 | 29.64600 | -71.49959 | 39040 ft | 502 kts | 91° |
| 2026-04-25 14:08 | 29.64494 | -71.41936 | 39036 ft | 502 kts | 91° |
| 2026-04-25 14:09 | 29.64236 | -71.33924 | 39040 ft | 499 kts | 105° |
| 2026-04-25 14:09 | 29.63975 | -71.29941 | 39041 ft | 501 kts | 94° |
| 2026-04-25 14:09 | 29.63889 | -71.25935 | 39048 ft | 503 kts | 92° |
| 2026-04-25 14:10 | 29.63899 | -71.17892 | 39049 ft | 503 kts | 90° |
| 2026-04-25 14:10 | 29.63890 | -71.09860 | 39050 ft | 502 kts | 93° |
| 2026-04-25 14:11 | 29.63764 | -71.01831 | 39050 ft | 502 kts | 93° |
| 2026-04-25 14:11 | 29.63609 | -70.93808 | 39043 ft | 502 kts | 94° |
| 2026-04-25 14:12 | 29.63450 | -70.85785 | 39034 ft | 502 kts | 93° |
| 2026-04-25 14:12 | 29.63301 | -70.77737 | 39044 ft | 504 kts | 93° |
| 2026-04-25 14:13 | 29.63156 | -70.69741 | 39047 ft | 504 kts | 94° |
| 2026-04-25 14:13 | 29.62992 | -70.61634 | 39046 ft | 504 kts | 93° |
| 2026-04-25 14:14 | 29.62838 | -70.53631 | 39042 ft | 504 kts | 93° |
| 2026-04-25 14:14 | 29.62686 | -70.45561 | 39052 ft | 506 kts | 91° |
| 2026-04-25 14:15 | 29.62554 | -70.37478 | 39045 ft | 506 kts | 92° |
| 2026-04-25 14:15 | 29.62443 | -70.29391 | 39049 ft | 506 kts | 91° |
| 2026-04-25 14:16 | 29.62315 | -70.21313 | 39040 ft | 506 kts | 92° |
| 2026-04-25 14:16 | 29.62145 | -70.13219 | 39050 ft | 508 kts | 92° |
| 2026-04-25 14:17 | 29.61953 | -70.05104 | 39044 ft | 508 kts | 92° |
| 2026-04-25 14:17 | 29.61755 | -69.96986 | 39050 ft | 508 kts | 92° |
| 2026-04-25 14:18 | 29.61554 | -69.88874 | 39053 ft | 508 kts | 92° |
| 2026-04-25 14:18 | 29.61348 | -69.80746 | 39044 ft | 510 kts | 92° |
| 2026-04-25 14:19 | 29.61137 | -69.72597 | 39052 ft | 511 kts | 92° |
| 2026-04-25 14:19 | 29.60920 | -69.64437 | 39053 ft | 511 kts | 92° |
| 2026-04-25 14:20 | 29.60699 | -69.56278 | 39050 ft | 511 kts | 92° |
| 2026-04-25 14:20 | 29.60472 | -69.48127 | 39066 ft | 512 kts | 92° |
| 2026-04-25 14:21 | 29.60240 | -69.39958 | 39052 ft | 511 kts | 92° |
| 2026-04-25 14:21 | 29.60004 | -69.31800 | 39054 ft | 511 kts | 92° |
| 2026-04-25 14:22 | 29.59763 | -69.23649 | 39055 ft | 510 kts | 92° |
| 2026-04-25 14:22 | 29.59517 | -69.15495 | 39060 ft | 511 kts | 92° |
| 2026-04-25 14:23 | 29.59264 | -69.07311 | 39056 ft | 513 kts | 92° |
| 2026-04-25 14:23 | 29.59010 | -68.99120 | 39060 ft | 513 kts | 92° |
| 2026-04-25 14:24 | 29.58746 | -68.90929 | 39058 ft | 513 kts | 92° |
| 2026-04-25 14:24 | 29.58477 | -68.82737 | 39048 ft | 514 kts | 93° |
| 2026-04-25 14:25 | 29.58202 | -68.74514 | 39054 ft | 516 kts | 93° |
| 2026-04-25 14:25 | 29.57923 | -68.66277 | 39054 ft | 516 kts | 93° |
| 2026-04-25 14:26 | 29.57638 | -68.58043 | 39054 ft | 516 kts | 93° |
| 2026-04-25 14:26 | 29.57351 | -68.49858 | 39052 ft | 517 kts | 93° |
| 2026-04-25 14:27 | 29.57053 | -68.41537 | 39055 ft | 519 kts | 93° |
| 2026-04-25 14:27 | 29.56752 | -68.33256 | 39055 ft | 519 kts | 93° |
| 2026-04-25 14:28 | 29.56446 | -68.24986 | 39054 ft | 519 kts | 93° |
| 2026-04-25 14:28 | 29.56136 | -68.16754 | 39048 ft | 519 kts | 94° |
| 2026-04-25 14:29 | 29.55818 | -68.08450 | 39055 ft | 521 kts | 94° |
| 2026-04-25 14:29 | 29.55495 | -68.00135 | 39054 ft | 522 kts | 94° |
| 2026-04-25 14:30 | 29.55166 | -67.91813 | 39054 ft | 522 kts | 94° |
| 2026-04-25 14:30 | 29.54663 | -67.79330 | 39055 ft | 522 kts | 94° |
| 2026-04-25 14:31 | 29.54322 | -67.71018 | 39056 ft | 521 kts | 94° |
| 2026-04-25 14:31 | 29.53950 | -67.62709 | 39057 ft | 521 kts | 94° |
| 2026-04-25 14:32 | 29.53589 | -67.54385 | 39057 ft | 521 kts | 94° |
| 2026-04-25 14:32 | 29.53253 | -67.46056 | 39073 ft | 523 kts | 94° |
| 2026-04-25 14:33 | 29.52901 | -67.37723 | 39056 ft | 523 kts | 94° |
| 2026-04-25 14:33 | 29.52535 | -67.29390 | 39049 ft | 522 kts | 96° |
| 2026-04-25 14:34 | 29.52119 | -67.21124 | 39050 ft | 522 kts | 95° |
| 2026-04-25 14:34 | 29.51751 | -67.12785 | 39057 ft | 524 kts | 94° |
| 2026-04-25 14:35 | 29.51390 | -67.04423 | 39057 ft | 524 kts | 94° |
| 2026-04-25 14:35 | 29.51009 | -66.96066 | 39049 ft | 524 kts | 94° |
| 2026-04-25 14:36 | 29.50614 | -66.87702 | 39045 ft | 524 kts | 95° |
| 2026-04-25 14:36 | 29.50212 | -66.79338 | 39051 ft | 525 kts | 95° |
| 2026-04-25 14:37 | 29.49805 | -66.70974 | 39054 ft | 525 kts | 95° |
| 2026-04-25 14:37 | 29.49392 | -66.62597 | 39050 ft | 525 kts | 95° |
| 2026-04-25 14:38 | 29.48975 | -66.54234 | 39046 ft | 525 kts | 95° |
| 2026-04-25 14:38 | 29.48553 | -66.45867 | 39054 ft | 525 kts | 95° |
| 2026-04-25 14:39 | 29.48125 | -66.37504 | 39054 ft | 525 kts | 95° |
| 2026-04-25 14:39 | 29.47693 | -66.29149 | 39054 ft | 525 kts | 95° |
| 2026-04-25 14:40 | 29.47255 | -66.20785 | 39052 ft | 525 kts | 95° |
| 2026-04-25 14:40 | 29.46809 | -66.12381 | 39054 ft | 529 kts | 95° |
| 2026-04-25 14:41 | 29.46359 | -66.03987 | 39049 ft | 525 kts | 95° |
| 2026-04-25 14:41 | 29.45983 | -65.97048 | 39050 ft | 524 kts | 95° |
| 2026-04-25 14:42 | 29.45604 | -65.90114 | 39053 ft | 524 kts | 95° |
| 2026-04-25 14:42 | 29.45062 | -65.80334 | 39054 ft | 526 kts | 95° |
| 2026-04-25 14:43 | 29.44593 | -65.71966 | 39053 ft | 526 kts | 96° |
| 2026-04-25 14:43 | 29.44118 | -65.63597 | 39053 ft | 526 kts | 96° |
| 2026-04-25 14:44 | 29.43639 | -65.55225 | 39052 ft | 528 kts | 96° |
| 2026-04-25 14:44 | 29.43148 | -65.46790 | 39056 ft | 529 kts | 96° |
| 2026-04-25 14:45 | 29.42657 | -65.38393 | 39049 ft | 527 kts | 96° |
| 2026-04-25 14:45 | 29.42162 | -65.30015 | 39050 ft | 526 kts | 96° |
| 2026-04-25 14:46 | 29.41660 | -65.21622 | 39052 ft | 529 kts | 97° |
| 2026-04-25 14:46 | 29.41149 | -65.13188 | 39048 ft | 530 kts | 97° |
| 2026-04-25 14:47 | 29.40721 | -65.06176 | 39049 ft | 530 kts | 97° |
| 2026-04-25 14:47 | 29.40117 | -64.96376 | 39035 ft | 530 kts | 98° |
| 2026-04-25 14:48 | 29.39588 | -64.87903 | 39049 ft | 536 kts | 98° |
| 2026-04-25 14:48 | 29.39048 | -64.79357 | 39048 ft | 538 kts | 98° |
| 2026-04-25 14:49 | 29.38505 | -64.70817 | 39048 ft | 537 kts | 98° |
| 2026-04-25 14:49 | 29.37957 | -64.62269 | 39047 ft | 537 kts | 98° |
| 2026-04-25 14:50 | 29.37402 | -64.53734 | 39048 ft | 537 kts | 98° |
| 2026-04-25 14:50 | 29.36842 | -64.45199 | 39048 ft | 537 kts | 98° |
| 2026-04-25 14:51 | 29.36277 | -64.36671 | 39048 ft | 537 kts | 98° |
| 2026-04-25 14:51 | 29.35705 | -64.28119 | 39043 ft | 540 kts | 99° |
| 2026-04-25 14:52 | 29.35119 | -64.19484 | 39047 ft | 546 kts | 99° |
| 2026-04-25 14:52 | 29.34627 | -64.12260 | 39046 ft | 547 kts | 99° |
| 2026-04-25 14:53 | 29.33932 | -64.02105 | 39043 ft | 547 kts | 101° |
| 2026-04-25 14:53 | 29.33323 | -63.93370 | 39042 ft | 553 kts | 101° |
| 2026-04-25 14:54 | 29.32702 | -63.84552 | 39040 ft | 556 kts | 101° |
| 2026-04-25 14:54 | 29.32079 | -63.75723 | 39053 ft | 556 kts | 101° |
| 2026-04-25 14:55 | 29.31448 | -63.66886 | 39050 ft | 558 kts | 102° |
| 2026-04-25 14:55 | 29.30804 | -63.57999 | 39048 ft | 560 kts | 101° |
| 2026-04-25 14:56 | 29.30160 | -63.49127 | 39045 ft | 559 kts | 101° |
| 2026-04-25 14:56 | 29.29511 | -63.40256 | 39033 ft | 559 kts | 102° |
| 2026-04-25 14:57 | 29.28850 | -63.31371 | 39049 ft | 562 kts | 102° |
| 2026-04-25 14:57 | 29.28182 | -63.22453 | 39045 ft | 562 kts | 102° |
| 2026-04-25 14:58 | 29.27514 | -63.13595 | 39048 ft | 562 kts | 102° |
| 2026-04-25 14:58 | 29.26835 | -63.04680 | 39046 ft | 562 kts | 103° |
| 2026-04-25 14:59 | 29.26149 | -62.95761 | 39045 ft | 562 kts | 103° |
| 2026-04-25 14:59 | 29.25458 | -62.86841 | 39046 ft | 562 kts | 103° |
| 2026-04-25 15:00 | 29.24761 | -62.77928 | 39041 ft | 563 kts | 103° |
| 2026-04-25 15:00 | 29.24051 | -62.68966 | 39044 ft | 566 kts | 103° |
| 2026-04-25 15:01 | 29.23338 | -62.59998 | 39047 ft | 566 kts | 103° |
| 2026-04-25 15:01 | 29.22620 | -62.51034 | 39031 ft | 566 kts | 103° |
| 2026-04-25 15:02 | 29.21868 | -62.42068 | 39047 ft | 566 kts | 103° |
| 2026-04-25 15:02 | 29.21147 | -62.33091 | 39043 ft | 567 kts | 103° |
| 2026-04-25 15:03 | 29.20421 | -62.24107 | 39047 ft | 567 kts | 103° |
| 2026-04-25 15:03 | 29.19678 | -62.15123 | 39045 ft | 568 kts | 103° |
| 2026-04-25 15:04 | 29.18924 | -62.06121 | 39045 ft | 568 kts | 103° |
| 2026-04-25 15:04 | 29.18165 | -61.97113 | 39042 ft | 568 kts | 103° |
| 2026-04-25 15:05 | 29.17399 | -61.88112 | 39042 ft | 570 kts | 103° |
| 2026-04-25 15:06 | 29.16232 | -61.74538 | 39046 ft | 572 kts | 103° |
| 2026-04-25 15:06 | 29.15447 | -61.65475 | 39042 ft | 573 kts | 103° |
| 2026-04-25 15:07 | 29.14666 | -61.56406 | 39042 ft | 573 kts | 103° |
| 2026-04-25 15:07 | 29.13883 | -61.47330 | 39038 ft | 572 kts | 103° |
| 2026-04-25 15:08 | 29.13064 | -61.38282 | 39036 ft | 572 kts | 103° |
| 2026-04-25 15:08 | 29.12242 | -61.29219 | 39033 ft | 573 kts | 103° |
| 2026-04-25 15:09 | 29.11419 | -61.20137 | 39036 ft | 576 kts | 103° |
| 2026-04-25 15:09 | 29.10179 | -61.06477 | 39043 ft | 576 kts | 103° |
| 2026-04-25 15:10 | 29.09343 | -60.97369 | 39041 ft | 577 kts | 103° |
| 2026-04-25 15:11 | 29.08073 | -60.83685 | 39041 ft | 577 kts | 103° |
| 2026-04-25 15:11 | 29.07221 | -60.74573 | 39024 ft | 577 kts | 103° |
| 2026-04-25 15:12 | 29.05935 | -60.60957 | 39039 ft | 577 kts | 103° |
| 2026-04-25 15:12 | 29.05355 | -60.54862 | 39039 ft | 576 kts | 103° |
| 2026-04-25 15:13 | 29.03754 | -60.38200 | 39036 ft | 574 kts | 103° |
| 2026-04-25 15:14 | 29.02876 | -60.29140 | 39037 ft | 574 kts | 103° |
| 2026-04-25 15:14 | 29.01990 | -60.20083 | 39034 ft | 573 kts | 103° |
| 2026-04-25 15:15 | 29.01098 | -60.11034 | 39039 ft | 573 kts | 103° |
| 2026-04-25 15:15 | 29.00215 | -60.01988 | 39036 ft | 574 kts | 101° |
| 2026-04-25 15:16 | 29.00055 | -59.92784 | 39035 ft | 582 kts | 95° |
| 2026-04-25 15:16 | 29.00194 | -59.78891 | 39033 ft | 583 kts | 94° |
| 2026-04-25 15:17 | 29.00352 | -59.65028 | 39034 ft | 582 kts | 94° |
| 2026-04-25 15:18 | 29.00433 | -59.55786 | 39030 ft | 581 kts | 94° |
| 2026-04-25 15:18 | 29.00531 | -59.41947 | 39029 ft | 581 kts | 94° |
| 2026-04-25 15:19 | 29.00568 | -59.35836 | 39032 ft | 581 kts | 94° |
| 2026-04-25 15:19 | 29.00645 | -59.23491 | 39029 ft | 580 kts | 94° |
| 2026-04-25 15:20 | 29.00688 | -59.14272 | 39026 ft | 580 kts | 94° |
| 2026-04-25 15:20 | 29.00726 | -59.05059 | 39032 ft | 580 kts | 94° |
| 2026-04-25 15:21 | 29.00759 | -58.95830 | 39032 ft | 581 kts | 94° |
| 2026-04-25 15:21 | 29.00788 | -58.86590 | 39031 ft | 582 kts | 94° |
| 2026-04-25 15:22 | 29.00810 | -58.77349 | 39026 ft | 582 kts | 94° |
| 2026-04-25 15:22 | 29.00826 | -58.68167 | 39026 ft | 582 kts | 94° |
| 2026-04-25 15:23 | 29.00836 | -58.58924 | 39027 ft | 582 kts | 95° |
| 2026-04-25 15:23 | 29.00839 | -58.49617 | 39026 ft | 582 kts | 95° |
| 2026-04-25 15:24 | 29.00835 | -58.40379 | 39028 ft | 582 kts | 94° |
| 2026-04-25 15:24 | 29.00829 | -58.34257 | 39028 ft | 582 kts | 95° |
| 2026-04-25 15:25 | 29.00809 | -58.21947 | 39028 ft | 582 kts | 95° |
| 2026-04-25 15:25 | 29.00786 | -58.12701 | 39026 ft | 583 kts | 94° |
| 2026-04-25 15:26 | 29.00757 | -58.03454 | 39029 ft | 583 kts | 95° |
| 2026-04-25 15:26 | 29.00722 | -57.94181 | 39023 ft | 583 kts | 95° |
| 2026-04-25 15:27 | 29.00681 | -57.84915 | 39023 ft | 584 kts | 94° |
| 2026-04-25 15:28 | 29.00615 | -57.72508 | 39025 ft | 584 kts | 94° |
| 2026-04-25 15:28 | 29.00559 | -57.63221 | 39008 ft | 584 kts | 94° |
| 2026-04-25 15:29 | 29.00496 | -57.53936 | 39026 ft | 585 kts | 94° |
| 2026-04-25 15:29 | 29.00427 | -57.44648 | 39025 ft | 585 kts | 94° |
| 2026-04-25 15:30 | 29.00351 | -57.35345 | 39013 ft | 585 kts | 94° |
| 2026-04-25 15:30 | 29.00268 | -57.26042 | 39021 ft | 586 kts | 94° |
| 2026-04-25 15:31 | 29.00180 | -57.16731 | 39020 ft | 586 kts | 94° |
| 2026-04-25 15:31 | 29.00085 | -57.07418 | 39014 ft | 586 kts | 94° |
| 2026-04-25 15:32 | 28.99988 | -56.98107 | 39020 ft | 587 kts | 94° |
| 2026-04-25 15:32 | 29.00154 | -56.88766 | 39018 ft | 588 kts | 91° |
| 2026-04-25 15:33 | 29.00616 | -56.74758 | 39018 ft | 589 kts | 91° |
| 2026-04-25 15:33 | 29.00866 | -56.65387 | 39017 ft | 589 kts | 95° |
| 2026-04-25 15:34 | 29.00913 | -56.56043 | 39001 ft | 588 kts | 96° |
| 2026-04-25 15:34 | 29.00939 | -56.48270 | 39025 ft | 591 kts | 92° |
| 2026-04-25 15:35 | 29.01509 | -56.32676 | 39022 ft | 591 kts | 90° |
| 2026-04-25 15:36 | 29.01890 | -56.18615 | 39010 ft | 590 kts | 91° |
| 2026-04-25 15:36 | 29.02066 | -56.09236 | 39012 ft | 590 kts | 91° |
| 2026-04-25 15:37 | 29.02233 | -55.99859 | 39015 ft | 590 kts | 91° |
| 2026-04-25 15:37 | 29.02400 | -55.90481 | 39008 ft | 590 kts | 91° |
| 2026-04-25 15:38 | 29.02564 | -55.81102 | 39011 ft | 590 kts | 91° |
| 2026-04-25 15:38 | 29.02721 | -55.71731 | 39012 ft | 591 kts | 91° |
| 2026-04-25 15:39 | 29.02873 | -55.62342 | 39011 ft | 591 kts | 91° |
| 2026-04-25 15:39 | 29.03017 | -55.52957 | 39014 ft | 591 kts | 91° |
| 2026-04-25 15:40 | 29.03132 | -55.45156 | 39010 ft | 591 kts | 91° |
| 2026-04-25 15:40 | 29.03286 | -55.34180 | 39006 ft | 591 kts | 91° |
| 2026-04-25 15:41 | 29.03411 | -55.24790 | 38993 ft | 591 kts | 91° |
| 2026-04-25 15:41 | 29.03529 | -55.15384 | 39012 ft | 592 kts | 91° |
| 2026-04-25 15:42 | 29.03641 | -55.05981 | 39001 ft | 592 kts | 91° |
| 2026-04-25 15:42 | 29.03747 | -54.96580 | 38993 ft | 592 kts | 91° |
| 2026-04-25 15:43 | 29.03846 | -54.87156 | 39001 ft | 593 kts | 91° |
| 2026-04-25 15:43 | 29.03938 | -54.77729 | 39007 ft | 593 kts | 91° |
| 2026-04-25 15:44 | 29.04024 | -54.68367 | 39014 ft | 593 kts | 91° |
| 2026-04-25 15:44 | 29.04103 | -54.58951 | 39007 ft | 592 kts | 91° |
| 2026-04-25 15:45 | 29.04176 | -54.49529 | 38984 ft | 592 kts | 91° |
| 2026-04-25 15:45 | 29.04231 | -54.41647 | 39008 ft | 593 kts | 91° |
| 2026-04-25 15:46 | 29.04301 | -54.30689 | 39005 ft | 593 kts | 91° |
| 2026-04-25 15:46 | 29.04354 | -54.21256 | 38997 ft | 594 kts | 91° |
| 2026-04-25 15:47 | 29.04401 | -54.11819 | 39004 ft | 594 kts | 91° |
| 2026-04-25 15:47 | 29.04441 | -54.02371 | 39010 ft | 594 kts | 92° |
| 2026-04-25 15:48 | 29.04474 | -53.92920 | 39015 ft | 595 kts | 91° |
| 2026-04-25 15:48 | 29.04501 | -53.83483 | 39006 ft | 594 kts | 92° |
| 2026-04-25 15:49 | 29.04521 | -53.74043 | 38997 ft | 594 kts | 92° |
| 2026-04-25 15:49 | 29.04534 | -53.64599 | 39004 ft | 595 kts | 92° |
| 2026-04-25 15:50 | 29.04541 | -53.55152 | 39006 ft | 595 kts | 92° |
| 2026-04-25 15:50 | 29.04542 | -53.45678 | 39004 ft | 595 kts | 92° |
| 2026-04-25 15:51 | 29.04537 | -53.37817 | 39002 ft | 595 kts | 92° |
| 2026-04-25 15:51 | 29.04522 | -53.26766 | 38999 ft | 595 kts | 92° |
| 2026-04-25 15:52 | 29.04503 | -53.17311 | 39011 ft | 595 kts | 92° |
| 2026-04-25 15:52 | 29.04477 | -53.07852 | 38997 ft | 595 kts | 92° |
| 2026-04-25 15:53 | 29.04444 | -52.98401 | 38998 ft | 595 kts | 92° |
| 2026-04-25 15:53 | 29.04404 | -52.88938 | 39003 ft | 596 kts | 92° |
| 2026-04-25 15:54 | 29.04358 | -52.79541 | 39006 ft | 596 kts | 92° |
| 2026-04-25 15:54 | 29.04305 | -52.70067 | 39004 ft | 597 kts | 92° |
| 2026-04-25 15:55 | 29.04246 | -52.60585 | 39003 ft | 597 kts | 92° |
| 2026-04-25 15:55 | 29.04180 | -52.51107 | 38991 ft | 597 kts | 92° |
| 2026-04-25 15:56 | 29.04107 | -52.41609 | 39010 ft | 596 kts | 92° |
| 2026-04-25 15:56 | 29.04028 | -52.32143 | 39003 ft | 596 kts | 92° |
| 2026-04-25 15:57 | 29.03942 | -52.22668 | 39002 ft | 597 kts | 92° |
| 2026-04-25 15:57 | 29.03848 | -52.13171 | 39007 ft | 598 kts | 92° |
| 2026-04-25 15:58 | 29.03749 | -52.03665 | 38995 ft | 598 kts | 92° |
| 2026-04-25 15:58 | 29.03642 | -51.94164 | 39009 ft | 599 kts | 92° |
| 2026-04-25 15:59 | 29.03529 | -51.84639 | 39005 ft | 599 kts | 92° |
| 2026-04-25 15:59 | 29.03409 | -51.75121 | 39037 ft | 600 kts | 92° |
| 2026-04-25 16:00 | 29.03325 | -51.68748 | 39010 ft | 598 kts | 92° |
| 2026-04-25 16:00 | 29.03150 | -51.56107 | 38992 ft | 598 kts | 92° |
| 2026-04-25 16:01 | 29.03009 | -51.46591 | 39007 ft | 599 kts | 92° |
| 2026-04-25 16:01 | 29.02862 | -51.37071 | 39004 ft | 600 kts | 93° |
| 2026-04-25 16:02 | 29.02709 | -51.27539 | 39018 ft | 600 kts | 93° |
| 2026-04-25 16:02 | 29.02548 | -51.17999 | 39004 ft | 601 kts | 93° |
| 2026-04-25 16:03 | 29.02381 | -51.08450 | 39003 ft | 601 kts | 93° |
| 2026-04-25 16:03 | 29.02207 | -50.98917 | 39013 ft | 599 kts | 93° |
| 2026-04-25 16:04 | 29.02027 | -50.89406 | 39012 ft | 598 kts | 93° |
| 2026-04-25 16:04 | 29.01841 | -50.79958 | 39011 ft | 600 kts | 93° |
| 2026-04-25 16:05 | 29.01646 | -50.70433 | 39010 ft | 600 kts | 93° |
| 2026-04-25 16:06 | 29.01343 | -50.56129 | 39019 ft | 601 kts | 93° |
| 2026-04-25 16:06 | 29.01131 | -50.46577 | 39018 ft | 601 kts | 93° |
| 2026-04-25 16:07 | 29.00913 | -50.37028 | 39019 ft | 603 kts | 93° |
| 2026-04-25 16:07 | 29.00688 | -50.27460 | 39019 ft | 602 kts | 93° |
| 2026-04-25 16:08 | 29.00456 | -50.17908 | 39000 ft | 601 kts | 93° |
| 2026-04-25 16:08 | 29.00218 | -50.08348 | 39016 ft | 603 kts | 93° |
| 2026-04-25 16:09 | 28.99973 | -49.98766 | 39018 ft | 603 kts | 93° |
| 2026-04-25 16:09 | 29.00017 | -49.89179 | 39018 ft | 604 kts | 89° |
| 2026-04-25 16:10 | 29.00292 | -49.79593 | 39023 ft | 604 kts | 89° |
| 2026-04-25 16:10 | 29.00526 | -49.70002 | 39016 ft | 604 kts | 89° |
| 2026-04-25 16:11 | 29.00694 | -49.60399 | 39015 ft | 605 kts | 90° |
| 2026-04-25 16:11 | 29.00833 | -49.50795 | 39003 ft | 605 kts | 90° |
| 2026-04-25 16:12 | 29.00966 | -49.41173 | 39018 ft | 605 kts | 90° |
| 2026-04-25 16:12 | 29.01097 | -49.31556 | 39021 ft | 605 kts | 90° |
| 2026-04-25 16:13 | 29.01224 | -49.21943 | 39023 ft | 606 kts | 90° |
| 2026-04-25 16:13 | 29.01342 | -49.12383 | 39039 ft | 606 kts | 90° |
| 2026-04-25 16:14 | 29.01437 | -49.04328 | 39027 ft | 605 kts | 90° |
| 2026-04-25 16:14 | 29.01543 | -48.94724 | 39023 ft | 605 kts | 90° |
| 2026-04-25 16:15 | 29.01643 | -48.85114 | 39023 ft | 605 kts | 90° |
| 2026-04-25 16:15 | 29.01735 | -48.75514 | 39026 ft | 605 kts | 90° |
| 2026-04-25 16:16 | 29.01821 | -48.65916 | 39026 ft | 604 kts | 90° |
| 2026-04-25 16:16 | 29.01900 | -48.56308 | 39031 ft | 605 kts | 90° |
| 2026-04-25 16:17 | 29.01972 | -48.46709 | 39033 ft | 603 kts | 90° |
| 2026-04-25 16:17 | 29.02037 | -48.37126 | 39035 ft | 603 kts | 90° |
| 2026-04-25 16:18 | 29.02096 | -48.27530 | 39030 ft | 604 kts | 90° |
| 2026-04-25 16:18 | 29.02147 | -48.17942 | 39035 ft | 604 kts | 90° |
| 2026-04-25 16:19 | 29.02192 | -48.08358 | 39038 ft | 603 kts | 90° |
| 2026-04-25 16:19 | 29.02230 | -47.98769 | 39052 ft | 603 kts | 90° |
| 2026-04-25 16:20 | 29.02275 | -47.84400 | 39042 ft | 603 kts | 90° |
| 2026-04-25 16:21 | 29.02303 | -47.70094 | 39041 ft | 603 kts | 90° |
| 2026-04-25 16:21 | 29.02314 | -47.60506 | 39043 ft | 603 kts | 90° |
| 2026-04-25 16:22 | 29.02318 | -47.50922 | 39045 ft | 603 kts | 90° |
| 2026-04-25 16:22 | 29.02316 | -47.41335 | 39063 ft | 603 kts | 90° |
| 2026-04-25 16:23 | 29.02306 | -47.31758 | 39046 ft | 603 kts | 90° |
| 2026-04-25 16:23 | 29.02289 | -47.22191 | 39048 ft | 602 kts | 89° |
| 2026-04-25 16:24 | 29.02270 | -47.12618 | 39047 ft | 603 kts | 90° |
| 2026-04-25 16:24 | 29.02238 | -47.03042 | 39050 ft | 603 kts | 90° |
| 2026-04-25 16:25 | 29.02200 | -46.93459 | 39041 ft | 602 kts | 90° |
| 2026-04-25 16:25 | 29.02156 | -46.83909 | 39055 ft | 601 kts | 90° |
| 2026-04-25 16:26 | 29.02106 | -46.74373 | 39053 ft | 599 kts | 90° |
| 2026-04-25 16:26 | 29.02050 | -46.64847 | 39055 ft | 599 kts | 90° |
| 2026-04-25 16:27 | 29.01986 | -46.55332 | 39044 ft | 599 kts | 90° |
| 2026-04-25 16:27 | 29.01916 | -46.45808 | 39054 ft | 599 kts | 90° |
| 2026-04-25 16:28 | 29.01839 | -46.36295 | 39053 ft | 599 kts | 90° |
| 2026-04-25 16:28 | 29.01756 | -46.26777 | 39058 ft | 598 kts | 90° |
| 2026-04-25 16:29 | 29.01666 | -46.17291 | 39054 ft | 597 kts | 90° |
| 2026-04-25 16:29 | 29.01570 | -46.07862 | 39060 ft | 598 kts | 90° |
| 2026-04-25 16:30 | 29.01467 | -45.98367 | 39064 ft | 598 kts | 90° |
| 2026-04-25 16:30 | 29.01357 | -45.88873 | 39066 ft | 598 kts | 90° |
| 2026-04-25 16:31 | 29.01240 | -45.79382 | 39079 ft | 598 kts | 90° |
| 2026-04-25 16:31 | 29.01117 | -45.69895 | 39064 ft | 597 kts | 90° |
| 2026-04-25 16:32 | 29.00987 | -45.60410 | 39067 ft | 597 kts | 90° |
| 2026-04-25 16:32 | 29.00850 | -45.50927 | 39069 ft | 597 kts | 90° |
| 2026-04-25 16:33 | 29.00707 | -45.41446 | 39069 ft | 597 kts | 90° |
| 2026-04-25 16:33 | 29.00558 | -45.31974 | 39070 ft | 597 kts | 90° |
| 2026-04-25 16:34 | 29.00401 | -45.22487 | 39076 ft | 597 kts | 90° |
| 2026-04-25 16:34 | 29.00238 | -45.13009 | 39070 ft | 597 kts | 90° |
| 2026-04-25 16:35 | 29.00022 | -45.03534 | 39068 ft | 597 kts | 95° |
| 2026-04-25 16:35 | 28.99370 | -44.98861 | 39077 ft | 595 kts | 107° |
| 2026-04-25 16:35 | 28.98189 | -44.94352 | 39074 ft | 593 kts | 111° |
| 2026-04-25 16:36 | 28.95462 | -44.85460 | 39073 ft | 592 kts | 114° |
| 2026-04-25 16:36 | 28.92575 | -44.76653 | 39078 ft | 593 kts | 114° |
| 2026-04-25 16:37 | 28.89690 | -44.67843 | 39078 ft | 593 kts | 113° |
| 2026-04-25 16:37 | 28.86849 | -44.59078 | 39081 ft | 593 kts | 113° |
| 2026-04-25 16:38 | 28.83977 | -44.50190 | 39077 ft | 593 kts | 113° |
| 2026-04-25 16:38 | 28.81120 | -44.41367 | 39089 ft | 593 kts | 113° |
| 2026-04-25 16:39 | 28.78274 | -44.32610 | 39080 ft | 594 kts | 113° |
| 2026-04-25 16:39 | 28.75397 | -44.23784 | 39074 ft | 594 kts | 113° |
| 2026-04-25 16:40 | 28.72515 | -44.14969 | 39084 ft | 594 kts | 113° |
| 2026-04-25 16:40 | 28.69628 | -44.06155 | 39083 ft | 594 kts | 113° |
| 2026-04-25 16:41 | 28.66732 | -43.97338 | 39068 ft | 594 kts | 113° |
| 2026-04-25 16:41 | 28.62380 | -43.84128 | 39089 ft | 594 kts | 113° |
| 2026-04-25 16:42 | 28.59469 | -43.75324 | 39086 ft | 595 kts | 113° |
| 2026-04-25 16:42 | 28.56552 | -43.66518 | 39083 ft | 595 kts | 113° |
| 2026-04-25 16:43 | 28.53628 | -43.57717 | 39090 ft | 595 kts | 113° |
| 2026-04-25 16:43 | 28.50698 | -43.48918 | 39088 ft | 595 kts | 113° |
| 2026-04-25 16:44 | 28.47765 | -43.40133 | 39078 ft | 595 kts | 113° |
| 2026-04-25 16:44 | 28.44822 | -43.31338 | 39094 ft | 595 kts | 113° |
| 2026-04-25 16:45 | 28.41876 | -43.22557 | 39092 ft | 595 kts | 113° |
| 2026-04-25 16:45 | 28.38924 | -43.13780 | 39091 ft | 595 kts | 113° |
| 2026-04-25 16:46 | 28.35967 | -43.05009 | 39087 ft | 595 kts | 114° |
| 2026-04-25 16:46 | 28.33985 | -42.99142 | 39094 ft | 594 kts | 113° |
| 2026-04-25 16:47 | 28.30036 | -42.87483 | 39096 ft | 595 kts | 113° |
| 2026-04-25 16:47 | 28.27061 | -42.78725 | 39076 ft | 595 kts | 114° |
| 2026-04-25 16:48 | 28.24079 | -42.69965 | 39094 ft | 595 kts | 114° |
| 2026-04-25 16:48 | 28.21096 | -42.61222 | 39113 ft | 595 kts | 114° |
| 2026-04-25 16:49 | 28.18104 | -42.52475 | 39106 ft | 595 kts | 117° |
| 2026-04-25 16:49 | 28.14949 | -42.43824 | 39100 ft | 596 kts | 114° |
| 2026-04-25 16:50 | 28.11994 | -42.35048 | 39100 ft | 596 kts | 112° |
| 2026-04-25 16:50 | 28.09067 | -42.26261 | 39101 ft | 596 kts | 113° |
| 2026-04-25 16:51 | 28.06078 | -42.17503 | 39102 ft | 596 kts | 113° |
| 2026-04-25 16:51 | 28.04056 | -42.11660 | 39103 ft | 596 kts | 113° |
| 2026-04-25 16:52 | 27.99911 | -42.00107 | 39106 ft | 593 kts | 121° |
| 2026-04-25 16:52 | 27.96057 | -41.91857 | 39105 ft | 593 kts | 122° |
| 2026-04-25 16:53 | 27.90059 | -41.79644 | 39117 ft | 592 kts | 123° |
| 2026-04-25 16:54 | 27.86040 | -41.71511 | 39103 ft | 593 kts | 122° |
| 2026-04-25 16:54 | 27.82028 | -41.63372 | 39103 ft | 593 kts | 122° |
| 2026-04-25 16:55 | 27.78016 | -41.55232 | 39107 ft | 592 kts | 122° |
| 2026-04-25 16:55 | 27.73999 | -41.47097 | 39107 ft | 594 kts | 122° |
| 2026-04-25 16:56 | 27.69972 | -41.38960 | 39083 ft | 594 kts | 122° |
| 2026-04-25 16:56 | 27.65972 | -41.30893 | 39110 ft | 593 kts | 122° |
| 2026-04-25 16:57 | 27.61934 | -41.22767 | 39112 ft | 594 kts | 122° |
| 2026-04-25 16:57 | 27.57891 | -41.14646 | 39097 ft | 594 kts | 122° |
| 2026-04-25 16:58 | 27.53844 | -41.06532 | 39106 ft | 593 kts | 123° |
| 2026-04-25 16:58 | 27.49802 | -40.98442 | 39107 ft | 592 kts | 123° |
| 2026-04-25 16:59 | 27.45755 | -40.90359 | 39117 ft | 593 kts | 123° |
| 2026-04-25 16:59 | 27.41699 | -40.82275 | 39104 ft | 593 kts | 123° |
| 2026-04-25 17:00 | 27.37643 | -40.74202 | 39116 ft | 592 kts | 123° |
| 2026-04-25 17:00 | 27.34269 | -40.67499 | 39118 ft | 592 kts | 123° |
| 2026-04-25 17:01 | 27.30200 | -40.59430 | 39089 ft | 594 kts | 123° |
| 2026-04-25 17:01 | 27.26123 | -40.51359 | 39107 ft | 592 kts | 123° |
| 2026-04-25 17:02 | 27.22049 | -40.43310 | 39112 ft | 593 kts | 123° |
| 2026-04-25 17:02 | 27.17963 | -40.35255 | 39108 ft | 594 kts | 123° |
| 2026-04-25 17:03 | 27.13873 | -40.27205 | 39109 ft | 593 kts | 123° |
| 2026-04-25 17:03 | 27.09783 | -40.19169 | 39111 ft | 594 kts | 123° |
| 2026-04-25 17:04 | 27.05684 | -40.11130 | 39110 ft | 594 kts | 123° |
| 2026-04-25 17:04 | 27.01569 | -40.03075 | 39096 ft | 594 kts | 123° |
| 2026-04-25 17:05 | 26.97517 | -39.95011 | 39108 ft | 595 kts | 121° |
| 2026-04-25 17:05 | 26.91812 | -39.82653 | 39107 ft | 595 kts | 120° |
| 2026-04-25 17:06 | 26.88004 | -39.74410 | 39108 ft | 596 kts | 120° |
| 2026-04-25 17:06 | 26.84145 | -39.66179 | 39108 ft | 597 kts | 120° |
| 2026-04-25 17:07 | 26.80269 | -39.57964 | 39107 ft | 597 kts | 120° |
| 2026-04-25 17:07 | 26.76383 | -39.49744 | 39108 ft | 598 kts | 120° |
| 2026-04-25 17:08 | 26.72517 | -39.41574 | 39107 ft | 597 kts | 120° |
| 2026-04-25 17:08 | 26.68632 | -39.33367 | 39111 ft | 597 kts | 120° |
| 2026-04-25 17:09 | 26.64730 | -39.25162 | 39105 ft | 598 kts | 120° |
| 2026-04-25 17:09 | 26.60823 | -39.16951 | 39089 ft | 598 kts | 120° |
| 2026-04-25 17:10 | 26.56920 | -39.08759 | 39107 ft | 597 kts | 120° |
| 2026-04-25 17:10 | 26.52971 | -39.00603 | 39102 ft | 598 kts | 121° |
| 2026-04-25 17:11 | 26.48968 | -38.92466 | 39102 ft | 597 kts | 123° |
| 2026-04-25 17:11 | 26.45010 | -38.84313 | 39100 ft | 597 kts | 121° |
| 2026-04-25 17:12 | 26.41063 | -38.76206 | 39102 ft | 595 kts | 121° |
| 2026-04-25 17:12 | 26.37238 | -38.68010 | 39102 ft | 596 kts | 119° |
| 2026-04-25 17:13 | 26.34065 | -38.61197 | 39104 ft | 597 kts | 120° |
| 2026-04-25 17:13 | 26.29508 | -38.51650 | 39101 ft | 595 kts | 120° |
| 2026-04-25 17:14 | 26.25583 | -38.43544 | 39102 ft | 594 kts | 117° |
| 2026-04-25 17:14 | 26.21673 | -38.35423 | 39103 ft | 596 kts | 121° |
| 2026-04-25 17:15 | 26.17714 | -38.27316 | 39090 ft | 595 kts | 121° |
| 2026-04-25 17:15 | 26.13768 | -38.19236 | 39098 ft | 593 kts | 121° |
| 2026-04-25 17:16 | 26.09802 | -38.11183 | 39103 ft | 594 kts | 123° |
| 2026-04-25 17:16 | 26.05767 | -38.03147 | 39103 ft | 596 kts | 121° |
| 2026-04-25 17:17 | 26.01851 | -37.95022 | 39130 ft | 595 kts | 120° |
| 2026-04-25 17:17 | 25.97978 | -37.86979 | 39102 ft | 595 kts | 120° |
| 2026-04-25 17:18 | 25.94009 | -37.78846 | 39102 ft | 595 kts | 121° |
| 2026-04-25 17:18 | 25.90072 | -37.70832 | 39113 ft | 595 kts | 121° |
| 2026-04-25 17:19 | 25.86065 | -37.62704 | 39094 ft | 595 kts | 121° |
| 2026-04-25 17:19 | 25.82124 | -37.54721 | 39094 ft | 593 kts | 121° |
| 2026-04-25 17:20 | 25.78157 | -37.46700 | 39113 ft | 593 kts | 121° |
| 2026-04-25 17:20 | 25.74174 | -37.38659 | 39103 ft | 596 kts | 121° |
| 2026-04-25 17:21 | 25.70185 | -37.30620 | 39105 ft | 594 kts | 121° |
| 2026-04-25 17:21 | 25.66206 | -37.22614 | 39104 ft | 593 kts | 121° |
| 2026-04-25 17:22 | 25.62866 | -37.15906 | 39117 ft | 594 kts | 121° |
| 2026-04-25 17:22 | 25.58208 | -37.06597 | 39099 ft | 594 kts | 121° |
| 2026-04-25 17:23 | 25.54200 | -36.98611 | 39119 ft | 593 kts | 121° |
| 2026-04-25 17:23 | 25.50200 | -36.90626 | 39105 ft | 593 kts | 121° |
| 2026-04-25 17:24 | 25.46217 | -36.82642 | 39106 ft | 593 kts | 121° |
| 2026-04-25 17:24 | 25.42223 | -36.74664 | 39127 ft | 593 kts | 121° |
| 2026-04-25 17:25 | 25.38206 | -36.66678 | 39103 ft | 595 kts | 121° |
| 2026-04-25 17:25 | 25.34166 | -36.58674 | 39106 ft | 596 kts | 121° |
| 2026-04-25 17:26 | 25.30112 | -36.50685 | 39106 ft | 596 kts | 121° |
| 2026-04-25 17:26 | 25.26074 | -36.42695 | 39091 ft | 596 kts | 121° |
| 2026-04-25 17:27 | 25.22047 | -36.34721 | 39111 ft | 593 kts | 121° |
| 2026-04-25 17:27 | 25.19384 | -36.29463 | 39112 ft | 592 kts | 121° |
| 2026-04-25 17:28 | 25.13980 | -36.18844 | 39112 ft | 594 kts | 121° |
| 2026-04-25 17:28 | 25.09956 | -36.10939 | 39090 ft | 595 kts | 121° |
| 2026-04-25 17:29 | 25.05883 | -36.02949 | 39106 ft | 593 kts | 121° |
| 2026-04-25 17:29 | 25.01859 | -35.95089 | 39115 ft | 593 kts | 122° |
| 2026-04-25 17:30 | 24.97800 | -35.87172 | 39111 ft | 594 kts | 121° |
| 2026-04-25 17:30 | 24.93744 | -35.79251 | 39082 ft | 594 kts | 121° |
| 2026-04-25 17:31 | 24.89685 | -35.71337 | 39113 ft | 592 kts | 121° |
| 2026-04-25 17:31 | 24.85627 | -35.63445 | 39110 ft | 593 kts | 122° |
| 2026-04-25 17:32 | 24.81553 | -35.55557 | 39111 ft | 592 kts | 122° |
| 2026-04-25 17:32 | 24.77462 | -35.47682 | 39121 ft | 593 kts | 122° |
| 2026-04-25 17:33 | 24.73395 | -35.39789 | 39110 ft | 593 kts | 121° |
| 2026-04-25 17:33 | 24.69329 | -35.31911 | 39110 ft | 592 kts | 122° |
| 2026-04-25 17:34 | 24.65252 | -35.24044 | 39127 ft | 592 kts | 122° |
| 2026-04-25 17:34 | 24.61156 | -35.16182 | 39112 ft | 593 kts | 123° |
| 2026-04-25 17:35 | 24.57044 | -35.08337 | 39115 ft | 592 kts | 122° |
| 2026-04-25 17:35 | 24.52964 | -35.00486 | 39119 ft | 592 kts | 122° |
| 2026-04-25 17:36 | 24.48886 | -34.92642 | 39116 ft | 592 kts | 122° |
| 2026-04-25 17:36 | 24.44785 | -34.84792 | 39116 ft | 592 kts | 122° |
| 2026-04-25 17:37 | 24.40679 | -34.76959 | 39116 ft | 592 kts | 122° |
| 2026-04-25 17:37 | 24.36561 | -34.69153 | 39121 ft | 591 kts | 123° |
| 2026-04-25 17:38 | 24.33836 | -34.63991 | 39118 ft | 592 kts | 122° |
| 2026-04-25 17:38 | 24.28348 | -34.53524 | 39119 ft | 592 kts | 122° |
| 2026-04-25 17:39 | 24.24235 | -34.45705 | 39118 ft | 591 kts | 122° |
| 2026-04-25 17:39 | 24.20117 | -34.37907 | 39121 ft | 591 kts | 123° |
| 2026-04-25 17:40 | 24.15979 | -34.30137 | 39121 ft | 591 kts | 122° |
| 2026-04-25 17:40 | 24.11862 | -34.22356 | 39121 ft | 591 kts | 122° |
| 2026-04-25 17:41 | 24.07740 | -34.14565 | 39087 ft | 592 kts | 122° |
| 2026-04-25 17:41 | 24.03602 | -34.06800 | 39118 ft | 590 kts | 123° |
| 2026-04-25 17:42 | 23.99464 | -33.99044 | 39120 ft | 590 kts | 122° |
| 2026-04-25 17:42 | 23.95193 | -33.91402 | 39123 ft | 589 kts | 125° |
| 2026-04-25 17:43 | 23.90798 | -33.83863 | 39118 ft | 588 kts | 126° |
| 2026-04-25 17:43 | 23.86421 | -33.76376 | 39113 ft | 588 kts | 125° |
| 2026-04-25 17:44 | 23.82077 | -33.68818 | 39134 ft | 587 kts | 124° |
| 2026-04-25 17:44 | 23.78447 | -33.62489 | 39123 ft | 587 kts | 124° |
| 2026-04-25 17:45 | 23.74818 | -33.56226 | 39118 ft | 587 kts | 126° |
| 2026-04-25 17:45 | 23.68963 | -33.46216 | 39121 ft | 588 kts | 124° |
| 2026-04-25 17:46 | 23.65318 | -33.39895 | 39129 ft | 588 kts | 124° |
| 2026-04-25 17:46 | 23.60988 | -33.32325 | 39124 ft | 589 kts | 124° |
| 2026-04-25 17:47 | 23.56626 | -33.24757 | 39121 ft | 589 kts | 125° |
| 2026-04-25 17:47 | 23.52274 | -33.17261 | 39119 ft | 589 kts | 125° |
| 2026-04-25 17:48 | 23.45698 | -33.05973 | 39122 ft | 587 kts | 125° |
| 2026-04-25 17:49 | 23.41319 | -32.98469 | 39115 ft | 587 kts | 125° |
| 2026-04-25 17:49 | 23.36931 | -32.90958 | 39119 ft | 587 kts | 125° |
| 2026-04-25 17:50 | 23.32546 | -32.83464 | 39099 ft | 588 kts | 125° |
| 2026-04-25 17:50 | 23.28152 | -32.75965 | 39114 ft | 587 kts | 125° |
| 2026-04-25 17:51 | 23.23762 | -32.68484 | 39115 ft | 587 kts | 125° |
| 2026-04-25 17:51 | 23.19374 | -32.61017 | 39121 ft | 587 kts | 125° |
| 2026-04-25 17:52 | 23.14970 | -32.53534 | 39117 ft | 587 kts | 125° |
| 2026-04-25 17:52 | 23.10567 | -32.46062 | 39105 ft | 586 kts | 125° |
| 2026-04-25 17:53 | 23.06171 | -32.38614 | 39103 ft | 585 kts | 125° |
| 2026-04-25 17:53 | 23.01776 | -32.31178 | 39111 ft | 586 kts | 125° |
| 2026-04-25 17:54 | 22.97364 | -32.23726 | 39111 ft | 586 kts | 125° |
| 2026-04-25 17:54 | 22.92922 | -32.16314 | 39107 ft | 584 kts | 132° |
| 2026-04-25 17:55 | 22.88220 | -32.09151 | 39104 ft | 583 kts | 133° |
| 2026-04-25 17:55 | 22.83604 | -32.01904 | 39109 ft | 586 kts | 131° |
| 2026-04-25 17:56 | 22.79144 | -31.94493 | 39110 ft | 587 kts | 130° |
| 2026-04-25 17:56 | 22.74744 | -31.87058 | 39109 ft | 586 kts | 130° |
| 2026-04-25 17:57 | 22.70486 | -31.79532 | 39110 ft | 584 kts | 126° |
| 2026-04-25 17:57 | 22.66225 | -31.72081 | 39105 ft | 582 kts | 128° |
| 2026-04-25 17:58 | 22.61794 | -31.64757 | 39095 ft | 579 kts | 135° |
| 2026-04-25 17:58 | 22.57240 | -31.57582 | 39102 ft | 583 kts | 123° |
| 2026-04-25 17:59 | 22.53106 | -31.50035 | 39090 ft | 583 kts | 123° |
| 2026-04-25 17:59 | 22.48888 | -31.42558 | 39099 ft | 581 kts | 124° |
| 2026-04-25 18:00 | 22.44528 | -31.35215 | 39100 ft | 580 kts | 126° |
| 2026-04-25 18:00 | 22.40139 | -31.27968 | 39100 ft | 580 kts | 126° |
| 2026-04-25 18:01 | 22.35639 | -31.20749 | 39098 ft | 579 kts | 131° |
| 2026-04-25 18:01 | 22.31029 | -31.13611 | 39081 ft | 579 kts | 133° |
| 2026-04-25 18:02 | 22.26394 | -31.06538 | 39093 ft | 576 kts | 135° |
| 2026-04-25 18:02 | 22.21793 | -30.99472 | 39095 ft | 575 kts | 134° |
| 2026-04-25 18:02 | 22.19597 | -30.95854 | 39115 ft | 578 kts | 123° |
| 2026-04-25 18:03 | 22.17594 | -30.92087 | 39099 ft | 580 kts | 121° |
| 2026-04-25 18:03 | 22.13602 | -30.84524 | 39093 ft | 579 kts | 123° |
| 2026-04-25 18:04 | 22.09498 | -30.77075 | 39089 ft | 577 kts | 124° |
| 2026-04-25 18:04 | 22.05089 | -30.69863 | 39085 ft | 575 kts | 127° |
| 2026-04-25 18:05 | 22.00590 | -30.62746 | 39090 ft | 575 kts | 127° |
| 2026-04-25 18:05 | 21.96137 | -30.55576 | 39087 ft | 576 kts | 126° |
| 2026-04-25 18:06 | 21.91727 | -30.48381 | 39085 ft | 576 kts | 126° |
| 2026-04-25 18:06 | 21.87328 | -30.41186 | 39086 ft | 573 kts | 126° |
| 2026-04-25 18:07 | 21.82947 | -30.34037 | 39089 ft | 573 kts | 126° |
| 2026-04-25 18:07 | 21.78554 | -30.26886 | 39089 ft | 573 kts | 126° |
| 2026-04-25 18:08 | 21.74159 | -30.19736 | 39085 ft | 573 kts | 126° |
| 2026-04-25 18:08 | 21.69763 | -30.12591 | 39083 ft | 573 kts | 126° |
| 2026-04-25 18:09 | 21.65310 | -30.05512 | 39091 ft | 573 kts | 126° |
| 2026-04-25 18:09 | 21.60947 | -29.98393 | 39074 ft | 574 kts | 126° |
| 2026-04-25 18:10 | 21.56550 | -29.91225 | 39079 ft | 574 kts | 126° |
| 2026-04-25 18:10 | 21.52135 | -29.84153 | 39078 ft | 571 kts | 127° |
| 2026-04-25 18:11 | 21.47675 | -29.77049 | 39048 ft | 575 kts | 127° |
| 2026-04-25 18:11 | 21.43100 | -29.70030 | 39078 ft | 572 kts | 128° |
| 2026-04-25 18:12 | 21.38485 | -29.63098 | 39072 ft | 571 kts | 129° |
| 2026-04-25 18:12 | 21.33859 | -29.56146 | 39077 ft | 576 kts | 128° |
| 2026-04-25 18:13 | 21.29181 | -29.49093 | 39075 ft | 583 kts | 128° |
| 2026-04-25 18:13 | 21.24473 | -29.41988 | 39060 ft | 585 kts | 128° |
| 2026-04-25 18:14 | 21.17415 | -29.31346 | 39069 ft | 583 kts | 128° |
| 2026-04-25 18:14 | 21.12713 | -29.24272 | 39072 ft | 582 kts | 128° |
| 2026-04-25 18:15 | 21.08007 | -29.17206 | 39070 ft | 583 kts | 128° |
| 2026-04-25 18:15 | 21.03295 | -29.10138 | 39067 ft | 583 kts | 128° |
| 2026-04-25 18:16 | 20.98592 | -29.03090 | 39066 ft | 581 kts | 128° |
| 2026-04-25 18:17 | 20.91548 | -28.92553 | 39064 ft | 580 kts | 128° |
| 2026-04-25 18:17 | 20.86850 | -28.85537 | 39064 ft | 581 kts | 128° |
| 2026-04-25 18:18 | 20.82146 | -28.78519 | 39059 ft | 581 kts | 128° |
| 2026-04-25 18:18 | 20.77443 | -28.71512 | 39055 ft | 579 kts | 128° |
| 2026-04-25 18:19 | 20.72755 | -28.64535 | 39059 ft | 577 kts | 129° |
| 2026-04-25 18:19 | 20.68106 | -28.57625 | 39056 ft | 577 kts | 129° |
| 2026-04-25 18:20 | 20.63417 | -28.50665 | 39049 ft | 577 kts | 129° |
| 2026-04-25 18:20 | 20.58732 | -28.43719 | 39051 ft | 577 kts | 129° |
| 2026-04-25 18:21 | 20.54043 | -28.36773 | 39049 ft | 575 kts | 129° |
| 2026-04-25 18:21 | 20.49368 | -28.29858 | 39050 ft | 574 kts | 129° |
| 2026-04-25 18:22 | 20.44697 | -28.22956 | 39048 ft | 574 kts | 129° |
| 2026-04-25 18:22 | 20.40025 | -28.16063 | 39048 ft | 573 kts | 129° |
| 2026-04-25 18:23 | 20.35353 | -28.09177 | 39045 ft | 573 kts | 129° |
| 2026-04-25 18:23 | 20.30680 | -28.02298 | 39043 ft | 573 kts | 129° |
| 2026-04-25 18:24 | 20.26005 | -27.95423 | 39041 ft | 572 kts | 129° |
| 2026-04-25 18:24 | 20.21340 | -27.88571 | 39041 ft | 572 kts | 129° |
| 2026-04-25 18:25 | 20.16667 | -27.81716 | 39041 ft | 572 kts | 129° |
| 2026-04-25 18:25 | 20.11995 | -27.74869 | 39044 ft | 572 kts | 129° |
| 2026-04-25 18:26 | 20.07317 | -27.68024 | 39041 ft | 571 kts | 129° |
| 2026-04-25 18:26 | 20.02651 | -27.61202 | 39040 ft | 570 kts | 129° |
| 2026-04-25 18:27 | 19.97992 | -27.54399 | 39039 ft | 569 kts | 129° |
| 2026-04-25 18:27 | 19.93330 | -27.47599 | 39039 ft | 569 kts | 129° |
| 2026-04-25 18:28 | 19.88660 | -27.40796 | 39027 ft | 570 kts | 129° |
| 2026-04-25 18:28 | 19.83986 | -27.33994 | 39029 ft | 569 kts | 129° |
| 2026-04-25 18:29 | 19.77004 | -27.23847 | 39030 ft | 567 kts | 129° |
| 2026-04-25 18:30 | 19.67692 | -27.10344 | 39032 ft | 567 kts | 129° |
| 2026-04-25 18:30 | 19.63061 | -27.03639 | 39032 ft | 567 kts | 129° |
| 2026-04-25 18:31 | 19.58402 | -26.96900 | 39019 ft | 565 kts | 129° |
| 2026-04-25 18:31 | 19.54517 | -26.91286 | 39026 ft | 563 kts | 129° |
| 2026-04-25 18:32 | 19.49885 | -26.84601 | 39029 ft | 563 kts | 129° |
| 2026-04-25 18:32 | 19.45248 | -26.77917 | 39026 ft | 563 kts | 129° |
| 2026-04-25 18:33 | 19.40607 | -26.71234 | 39026 ft | 563 kts | 129° |
| 2026-04-25 18:33 | 19.35963 | -26.64553 | 39026 ft | 563 kts | 129° |
| 2026-04-25 18:34 | 19.31319 | -26.57881 | 39026 ft | 563 kts | 129° |
| 2026-04-25 18:34 | 19.26672 | -26.51210 | 39026 ft | 562 kts | 129° |
| 2026-04-25 18:35 | 19.22030 | -26.44554 | 39026 ft | 562 kts | 129° |
| 2026-04-25 18:35 | 19.17383 | -26.37898 | 39021 ft | 562 kts | 129° |
| 2026-04-25 18:36 | 19.12737 | -26.31251 | 39021 ft | 562 kts | 129° |
| 2026-04-25 18:36 | 19.08091 | -26.24610 | 39014 ft | 560 kts | 129° |
| 2026-04-25 18:37 | 19.03489 | -26.18040 | 39018 ft | 559 kts | 129° |
| 2026-04-25 18:37 | 18.98858 | -26.11436 | 39018 ft | 559 kts | 129° |
| 2026-04-25 18:38 | 18.94228 | -26.04838 | 39031 ft | 559 kts | 129° |
| 2026-04-25 18:38 | 18.89626 | -25.98212 | 39012 ft | 559 kts | 129° |
| 2026-04-25 18:39 | 18.85043 | -25.91575 | 39016 ft | 559 kts | 129° |
| 2026-04-25 18:39 | 18.80474 | -25.84974 | 39016 ft | 557 kts | 129° |
| 2026-04-25 18:40 | 18.75900 | -25.78384 | 39016 ft | 556 kts | 129° |
| 2026-04-25 18:40 | 18.71325 | -25.71805 | 39013 ft | 556 kts | 129° |
| 2026-04-25 18:41 | 18.66741 | -25.65220 | 39013 ft | 556 kts | 129° |
| 2026-04-25 18:41 | 18.62163 | -25.58648 | 39009 ft | 556 kts | 129° |
| 2026-04-25 18:42 | 18.58355 | -25.53189 | 39007 ft | 556 kts | 129° |
| 2026-04-25 18:42 | 18.53001 | -25.45517 | 39011 ft | 555 kts | 129° |
| 2026-04-25 18:43 | 18.48424 | -25.38969 | 39006 ft | 555 kts | 129° |
| 2026-04-25 18:43 | 18.43842 | -25.32418 | 39008 ft | 555 kts | 129° |
| 2026-04-25 18:44 | 18.39254 | -25.25868 | 39004 ft | 555 kts | 129° |
| 2026-04-25 18:44 | 18.34699 | -25.19369 | 38993 ft | 555 kts | 129° |
| 2026-04-25 18:45 | 18.30088 | -25.12797 | 39001 ft | 554 kts | 129° |
| 2026-04-25 18:45 | 18.25537 | -25.06318 | 39001 ft | 554 kts | 129° |
| 2026-04-25 18:46 | 18.20958 | -24.99805 | 39002 ft | 554 kts | 130° |
| 2026-04-25 18:46 | 18.16376 | -24.93295 | 38998 ft | 554 kts | 130° |
| 2026-04-25 18:47 | 18.11793 | -24.86790 | 38998 ft | 554 kts | 130° |
| 2026-04-25 18:47 | 18.07211 | -24.80292 | 38993 ft | 553 kts | 129° |
| 2026-04-25 18:48 | 18.02637 | -24.73812 | 38996 ft | 551 kts | 130° |
| 2026-04-25 18:48 | 17.98074 | -24.67356 | 38990 ft | 551 kts | 130° |
| 2026-04-25 18:49 | 17.93502 | -24.60892 | 38990 ft | 551 kts | 130° |
| 2026-04-25 18:49 | 17.88926 | -24.54429 | 38990 ft | 551 kts | 130° |
| 2026-04-25 18:50 | 17.84352 | -24.47975 | 38988 ft | 551 kts | 130° |
| 2026-04-25 18:50 | 17.79777 | -24.41524 | 38983 ft | 550 kts | 130° |
| 2026-04-25 18:51 | 17.75948 | -24.36131 | 38984 ft | 550 kts | 130° |
| 2026-04-25 18:51 | 17.70633 | -24.28655 | 38983 ft | 550 kts | 130° |
| 2026-04-25 18:52 | 17.66029 | -24.22242 | 38986 ft | 550 kts | 130° |
| 2026-04-25 18:52 | 17.61407 | -24.15840 | 38980 ft | 550 kts | 130° |
| 2026-04-25 18:53 | 17.56794 | -24.09449 | 38985 ft | 550 kts | 130° |
| 2026-04-25 18:53 | 17.52180 | -24.03055 | 38982 ft | 549 kts | 130° |
| 2026-04-25 18:54 | 17.45166 | -23.93578 | 38980 ft | 549 kts | 133° |
| 2026-04-25 18:55 | 17.40513 | -23.87247 | 38981 ft | 549 kts | 130° |
| 2026-04-25 18:55 | 17.35991 | -23.80861 | 38979 ft | 550 kts | 129° |
| 2026-04-25 18:56 | 17.31444 | -23.74423 | 38984 ft | 549 kts | 130° |
| 2026-04-25 18:56 | 17.26854 | -23.68038 | 38973 ft | 548 kts | 130° |
| 2026-04-25 18:57 | 17.22253 | -23.61696 | 38970 ft | 547 kts | 130° |
| 2026-04-25 18:57 | 17.17651 | -23.55367 | 38973 ft | 546 kts | 130° |
| 2026-04-25 18:58 | 17.13050 | -23.49044 | 38973 ft | 546 kts | 130° |
| 2026-04-25 18:58 | 17.06152 | -23.39568 | 38971 ft | 546 kts | 130° |
| 2026-04-25 18:59 | 16.96973 | -23.26976 | 38956 ft | 543 kts | 130° |
| 2026-04-25 19:00 | 16.90107 | -23.17574 | 38969 ft | 542 kts | 130° |
| 2026-04-25 19:01 | 16.83251 | -23.08198 | 38939 ft | 542 kts | 130° |
| 2026-04-25 19:01 | 16.78670 | -23.01940 | 38933 ft | 542 kts | 130° |
| 2026-04-25 19:02 | 16.72637 | -22.91973 | 38931 ft | 548 kts | 114° |
| 2026-04-25 19:03 | 16.69480 | -22.83324 | 38932 ft | 549 kts | 111° |
| 2026-04-25 19:03 | 16.66045 | -22.73289 | 38937 ft | 550 kts | 111° |
| 2026-04-25 19:04 | 16.62145 | -22.62032 | 38943 ft | 550 kts | 112° |
| 2026-04-25 19:05 | 16.56902 | -22.47053 | 38949 ft | 550 kts | 112° |
| 2026-04-25 19:06 | 16.54279 | -22.39572 | 38948 ft | 550 kts | 112° |
| 2026-04-25 19:06 | 16.50333 | -22.28393 | 38976 ft | 547 kts | 113° |
| 2026-04-25 19:07 | 16.46367 | -22.17205 | 38956 ft | 548 kts | 112° |
| 2026-04-25 19:08 | 16.42470 | -22.06014 | 38939 ft | 548 kts | 112° |
| 2026-04-25 19:09 | 16.38089 | -21.93594 | 38938 ft | 547 kts | 112° |
| 2026-04-25 19:10 | 16.33266 | -21.79973 | 38946 ft | 547 kts | 112° |
| 2026-04-25 19:10 | 16.30629 | -21.72537 | 38942 ft | 548 kts | 112° |
| 2026-04-25 19:11 | 16.27985 | -21.65093 | 38943 ft | 548 kts | 112° |
| 2026-04-25 19:11 | 16.25322 | -21.57657 | 38942 ft | 548 kts | 112° |
| 2026-04-25 19:12 | 16.22652 | -21.50237 | 38939 ft | 547 kts | 112° |
| 2026-04-25 19:12 | 16.19985 | -21.42829 | 38940 ft | 547 kts | 112° |
| 2026-04-25 19:13 | 16.17317 | -21.35417 | 38941 ft | 547 kts | 112° |
| 2026-04-25 19:13 | 16.14648 | -21.28012 | 38941 ft | 547 kts | 112° |
| 2026-04-25 19:14 | 16.11975 | -21.20603 | 38939 ft | 547 kts | 112° |
| 2026-04-25 19:14 | 16.09300 | -21.13200 | 38941 ft | 547 kts | 112° |
| 2026-04-25 19:15 | 16.06619 | -21.05789 | 38935 ft | 548 kts | 112° |
| 2026-04-25 19:15 | 16.03955 | -20.98432 | 38936 ft | 548 kts | 112° |
| 2026-04-25 19:16 | 16.01268 | -20.91023 | 38936 ft | 548 kts | 112° |
| 2026-04-25 19:16 | 15.98580 | -20.83619 | 38922 ft | 547 kts | 112° |
| 2026-04-25 19:17 | 15.95894 | -20.76231 | 38929 ft | 546 kts | 112° |
| 2026-04-25 19:17 | 15.93210 | -20.68855 | 38926 ft | 546 kts | 112° |
| 2026-04-25 19:18 | 15.90522 | -20.61477 | 38930 ft | 546 kts | 112° |
| 2026-04-25 19:18 | 15.87832 | -20.54103 | 38925 ft | 546 kts | 112° |
| 2026-04-25 19:19 | 15.85140 | -20.46734 | 38928 ft | 546 kts | 112° |
| 2026-04-25 19:19 | 15.82449 | -20.39374 | 38925 ft | 546 kts | 112° |
| 2026-04-25 19:20 | 15.80203 | -20.33238 | 38920 ft | 546 kts | 112° |
| 2026-04-25 19:20 | 15.77504 | -20.25874 | 38919 ft | 546 kts | 112° |
| 2026-04-25 19:21 | 15.74803 | -20.18512 | 38915 ft | 546 kts | 112° |
| 2026-04-25 19:21 | 15.70744 | -20.07468 | 38917 ft | 545 kts | 112° |
| 2026-04-25 19:22 | 15.68046 | -20.00134 | 38915 ft | 544 kts | 112° |
| 2026-04-25 19:23 | 15.64096 | -19.89093 | 38912 ft | 544 kts | 112° |
| 2026-04-25 19:23 | 15.60158 | -19.78049 | 38913 ft | 544 kts | 112° |
| 2026-04-25 19:24 | 15.57527 | -19.70691 | 38907 ft | 544 kts | 112° |
| 2026-04-25 19:25 | 15.52261 | -19.56000 | 38908 ft | 543 kts | 112° |
| 2026-04-25 19:25 | 15.49624 | -19.48655 | 38909 ft | 543 kts | 112° |
| 2026-04-25 19:26 | 15.46974 | -19.41326 | 38907 ft | 543 kts | 113° |
| 2026-04-25 19:26 | 15.43734 | -19.34289 | 38903 ft | 540 kts | 118° |
| 2026-04-25 19:27 | 15.40933 | -19.28507 | 38905 ft | 539 kts | 118° |
| 2026-04-25 19:27 | 15.37005 | -19.20382 | 38900 ft | 539 kts | 118° |
| 2026-04-25 19:28 | 15.33647 | -19.13432 | 38900 ft | 539 kts | 118° |
| 2026-04-25 19:28 | 15.30291 | -19.06492 | 38901 ft | 539 kts | 118° |
| 2026-04-25 19:29 | 15.26928 | -18.99542 | 38901 ft | 539 kts | 118° |
| 2026-04-25 19:29 | 15.23569 | -18.92607 | 38895 ft | 539 kts | 118° |
| 2026-04-25 19:30 | 15.20205 | -18.85668 | 38896 ft | 539 kts | 118° |
| 2026-04-25 19:30 | 15.16860 | -18.78775 | 38546 ft | 525 kts | 118° |
| 2026-04-25 19:31 | 15.15234 | -18.75423 | 37391 ft | 519 kts | 118° |
| 2026-04-25 19:31 | 15.13604 | -18.72070 | 35712 ft | 526 kts | 117° |
| 2026-04-25 19:31 | 15.11942 | -18.68654 | 34021 ft | 537 kts | 117° |
| 2026-04-25 19:31 | 15.10239 | -18.65153 | 33188 ft | 549 kts | 117° |
| 2026-04-25 19:32 | 15.08532 | -18.61644 | 32442 ft | 545 kts | 116° |
| 2026-04-25 19:32 | 15.06823 | -18.58133 | 31524 ft | 546 kts | 116° |
| 2026-04-25 19:32 | 15.05137 | -18.54663 | 30685 ft | 546 kts | 116° |
| 2026-04-25 19:32 | 15.03986 | -18.52298 | 30223 ft | 544 kts | 116° |
| 2026-04-25 19:33 | 15.01746 | -18.47696 | 29295 ft | 537 kts | 115° |
| 2026-04-25 19:33 | 15.00075 | -18.44258 | 28656 ft | 531 kts | 116° |
| 2026-04-25 19:33 | 14.98418 | -18.40871 | 28041 ft | 525 kts | 116° |
| 2026-04-25 19:33 | 14.96777 | -18.37516 | 27429 ft | 519 kts | 116° |
| 2026-04-25 19:34 | 14.95162 | -18.34212 | 26826 ft | 514 kts | 116° |
| 2026-04-25 19:34 | 14.93573 | -18.30920 | 26212 ft | 507 kts | 114° |
| 2026-04-25 19:34 | 14.92007 | -18.27669 | 25628 ft | 502 kts | 116° |
| 2026-04-25 19:34 | 14.90427 | -18.24467 | 25044 ft | 497 kts | 117° |
| 2026-04-25 19:35 | 14.88866 | -18.21303 | 24442 ft | 492 kts | 116° |
| 2026-04-25 19:35 | 14.87321 | -18.18162 | 23865 ft | 487 kts | 116° |
| 2026-04-25 19:35 | 14.85796 | -18.15055 | 23232 ft | 483 kts | 117° |
| 2026-04-25 19:35 | 14.84285 | -18.11974 | 22590 ft | 477 kts | 117° |
| 2026-04-25 19:36 | 14.82798 | -18.08941 | 22006 ft | 470 kts | 117° |
| 2026-04-25 19:36 | 14.81330 | -18.05948 | 21415 ft | 464 kts | 117° |
| 2026-04-25 19:36 | 14.79877 | -18.02986 | 20834 ft | 459 kts | 117° |
| 2026-04-25 19:36 | 14.78443 | -18.00061 | 20235 ft | 453 kts | 117° |
| 2026-04-25 19:37 | 14.77025 | -17.97172 | 19660 ft | 449 kts | 117° |
| 2026-04-25 19:37 | 14.75622 | -17.94314 | 19087 ft | 444 kts | 118° |
| 2026-04-25 19:37 | 14.74230 | -17.91479 | 18503 ft | 441 kts | 118° |
| 2026-04-25 19:37 | 14.72846 | -17.88663 | 17874 ft | 437 kts | 118° |
| 2026-04-25 19:38 | 14.71478 | -17.85881 | 17242 ft | 432 kts | 118° |
| 2026-04-25 19:38 | 14.70126 | -17.83131 | 16674 ft | 427 kts | 118° |
| 2026-04-25 19:38 | 14.68792 | -17.80417 | 16102 ft | 421 kts | 118° |
| 2026-04-25 19:38 | 14.67471 | -17.77732 | 15519 ft | 416 kts | 118° |
| 2026-04-25 19:39 | 14.66169 | -17.75087 | 14965 ft | 411 kts | 118° |
| 2026-04-25 19:39 | 14.64880 | -17.72468 | 14386 ft | 406 kts | 118° |
| 2026-04-25 19:39 | 14.63606 | -17.69882 | 13829 ft | 402 kts | 119° |
| 2026-04-25 19:39 | 14.62335 | -17.67331 | 13222 ft | 396 kts | 122° |
| 2026-04-25 19:40 | 14.61038 | -17.64851 | 12677 ft | 388 kts | 124° |
| 2026-04-25 19:40 | 14.59735 | -17.62450 | 12128 ft | 379 kts | 125° |
| 2026-04-25 19:40 | 14.58458 | -17.60114 | 11616 ft | 369 kts | 126° |
| 2026-04-25 19:40 | 14.57242 | -17.57829 | 11074 ft | 354 kts | 126° |
| 2026-04-25 19:41 | 14.56138 | -17.55675 | 10819 ft | 321 kts | 125° |
| 2026-04-25 19:41 | 14.55166 | -17.53729 | 10704 ft | 293 kts | 126° |
| 2026-04-25 19:41 | 14.54247 | -17.51904 | 10582 ft | 283 kts | 126° |
| 2026-04-25 19:41 | 14.53940 | -17.51298 | 10532 ft | 282 kts | 127° |
| 2026-04-25 19:42 | 14.52423 | -17.48330 | 10338 ft | 280 kts | 131° |
| 2026-04-25 19:42 | 14.51470 | -17.46569 | 10207 ft | 281 kts | 131° |
| 2026-04-25 19:42 | 14.50370 | -17.44882 | 10145 ft | 284 kts | 146° |
| 2026-04-25 19:42 | 14.48816 | -17.43697 | 9838 ft | 275 kts | 161° |
| 2026-04-25 19:43 | 14.47107 | -17.42754 | 8929 ft | 284 kts | 165° |
| 2026-04-25 19:43 | 14.45281 | -17.41887 | 8034 ft | 294 kts | 154° |
| 2026-04-25 19:43 | 14.43438 | -17.40946 | 7574 ft | 295 kts | 154° |
| 2026-04-25 19:43 | 14.41630 | -17.40013 | 7311 ft | 287 kts | 154° |
| 2026-04-25 19:44 | 14.39844 | -17.39098 | 6928 ft | 286 kts | 154° |
| 2026-04-25 19:44 | 14.38057 | -17.38191 | 6493 ft | 287 kts | 154° |
| 2026-04-25 19:44 | 14.36262 | -17.37289 | 6095 ft | 285 kts | 154° |
| 2026-04-25 19:44 | 14.34497 | -17.36410 | 5882 ft | 279 kts | 154° |
| 2026-04-25 19:45 | 14.32739 | -17.35543 | 5832 ft | 282 kts | 154° |
| 2026-04-25 19:45 | 14.30950 | -17.34674 | 5837 ft | 286 kts | 154° |
| 2026-04-25 19:45 | 14.29163 | -17.33795 | 5841 ft | 283 kts | 154° |
| 2026-04-25 19:45 | 14.27541 | -17.32690 | 5835 ft | 280 kts | 133° |
| 2026-04-25 19:46 | 14.26506 | -17.31026 | 5838 ft | 276 kts | 109° |
| 2026-04-25 19:46 | 14.25856 | -17.29165 | 5844 ft | 276 kts | 106° |
| 2026-04-25 19:46 | 14.25293 | -17.27278 | 5835 ft | 276 kts | 104° |
| 2026-04-25 19:46 | 14.24750 | -17.25386 | 5837 ft | 275 kts | 103° |
| 2026-04-25 19:47 | 14.24206 | -17.23498 | 5845 ft | 275 kts | 104° |
| 2026-04-25 19:47 | 14.23798 | -17.21582 | 5823 ft | 272 kts | 92° |
| 2026-04-25 19:47 | 14.23936 | -17.19685 | 5441 ft | 264 kts | 71° |
| 2026-04-25 19:47 | 14.24832 | -17.18083 | 5000 ft | 258 kts | 43° |
| 2026-04-25 19:48 | 14.26150 | -17.16854 | 4676 ft | 253 kts | 37° |
| 2026-04-25 19:48 | 14.27496 | -17.15705 | 4332 ft | 250 kts | 37° |
| 2026-04-25 19:48 | 14.28825 | -17.14577 | 4056 ft | 245 kts | 37° |
| 2026-04-25 19:48 | 14.30104 | -17.13487 | 3978 ft | 232 kts | 36° |
| 2026-04-25 19:49 | 14.31333 | -17.12441 | 3979 ft | 229 kts | 37° |
| 2026-04-25 19:49 | 14.31732 | -17.12102 | 3982 ft | 229 kts | 37° |
| 2026-04-25 19:49 | 14.33787 | -17.10354 | 3987 ft | 230 kts | 37° |
| 2026-04-25 19:49 | 14.35019 | -17.09306 | 3987 ft | 230 kts | 37° |
| 2026-04-25 19:50 | 14.37587 | -17.07372 | 3995 ft | 227 kts | 21° |
| 2026-04-25 19:50 | 14.39095 | -17.06960 | 3996 ft | 223 kts | 6° |
| 2026-04-25 19:50 | 14.40651 | -17.06863 | 3993 ft | 225 kts | 0° |
| 2026-04-25 19:51 | 14.42218 | -17.06872 | 4003 ft | 226 kts | 359° |
| 2026-04-25 19:51 | 14.43784 | -17.06898 | 4000 ft | 224 kts | 359° |
| 2026-04-25 19:51 | 14.45337 | -17.06926 | 3992 ft | 224 kts | 0° |
| 2026-04-25 19:51 | 14.46900 | -17.06940 | 3814 ft | 225 kts | 0° |
| 2026-04-25 19:52 | 14.48464 | -17.06962 | 3533 ft | 225 kts | 359° |
| 2026-04-25 19:52 | 14.50024 | -17.06995 | 3235 ft | 223 kts | 360° |
| 2026-04-25 19:52 | 14.51567 | -17.07018 | 2924 ft | 221 kts | 359° |
| 2026-04-25 19:52 | 14.53092 | -17.07043 | 2643 ft | 218 kts | 360° |
| 2026-04-25 19:53 | 14.54593 | -17.07067 | 2353 ft | 211 kts | 359° |
| 2026-04-25 19:53 | 14.56016 | -17.07091 | 2111 ft | 198 kts | 1° |
| 2026-04-25 19:53 | 14.57343 | -17.07113 | 1887 ft | 183 kts | 1° |
| 2026-04-25 19:53 | 14.58591 | -17.07133 | 1645 ft | 176 kts | 1° |
| 2026-04-25 19:54 | 14.59810 | -17.07150 | 1402 ft | 173 kts | 359° |
| 2026-04-25 19:54 | 14.60981 | -17.07171 | 1185 ft | 163 kts | 359° |
| 2026-04-25 19:54 | 14.62069 | -17.07188 | 981 ft | 149 kts | 359° |
| 2026-04-25 19:54 | 14.62413 | -17.07193 | 929 ft | 145 kts | 357° |
| 2026-04-25 19:55 | 14.63670 | -17.07450 | 1474 ft | 85 kts | 336° |
| 2026-04-25 19:55 | 14.64026 | -17.07943 | 1584 ft | 85 kts | 302° |
| 2026-04-25 19:55 | 14.64348 | -17.08133 | 1444 ft | 0 kts | 11° |
| 2026-04-25 19:55 | 14.64995 | -17.08099 | 1451 ft | 123 kts | 354° |
| 2026-04-25 19:56 | 14.65598 | -17.08203 | 980 ft | 0 kts | 170° |
| 2026-04-25 19:56 | 14.66348 | -17.08298 | 2241 ft | 86 kts | 7° |
| 2026-04-25 19:56 | 14.66962 | -17.08252 | 2692 ft | 106 kts | 7° |
| 2026-04-25 19:56 | 14.67711 | -17.08070 | 2605 ft | 116 kts | 18° |
| 2026-04-25 19:57 | 14.68705 | -17.08376 | 2156 ft | 193 kts | 321° |
| 2026-04-25 19:57 | 14.69314 | -17.09770 | 2517 ft | 236 kts | 278° |
| 2026-04-25 19:57 | 14.68921 | -17.11358 | 2863 ft | 229 kts | 239° |
| 2026-04-25 19:57 | 14.67682 | -17.12325 | 2998 ft | 226 kts | 199° |
| 2026-04-25 19:58 | 14.66134 | -17.12253 | 2994 ft | 230 kts | 155° |
| 2026-04-25 19:58 | 14.64944 | -17.11148 | 2995 ft | 238 kts | 116° |
| 2026-04-25 19:58 | 14.64469 | -17.09483 | 2998 ft | 250 kts | 94° |
| 2026-04-25 19:58 | 14.64026 | -17.07706 | 3009 ft | 264 kts | 116° |
| 2026-04-25 19:59 | 14.62727 | -17.06369 | 3008 ft | 271 kts | 151° |
| 2026-04-25 19:59 | 14.60901 | -17.05900 | 3011 ft | 272 kts | 174° |
| 2026-04-25 19:59 | 14.59018 | -17.05750 | 3011 ft | 273 kts | 174° |
| 2026-04-25 19:59 | 14.57109 | -17.05537 | 3010 ft | 276 kts | 171° |
| 2026-04-25 20:00 | 14.55206 | -17.05249 | 3042 ft | 277 kts | 170° |
| 2026-04-25 20:00 | 14.54590 | -17.05141 | 3089 ft | 278 kts | 169° |
| 2026-04-25 20:00 | 14.51844 | -17.03553 | 3524 ft | 273 kts | 126° |
| 2026-04-25 20:00 | 14.50971 | -17.01854 | 3809 ft | 268 kts | 107° |
| 2026-04-25 20:01 | 14.49813 | -16.98182 | 4351 ft | 270 kts | 104° |
| 2026-04-25 20:01 | 14.49258 | -16.96330 | 4643 ft | 271 kts | 104° |
| 2026-04-25 20:01 | 14.48695 | -16.94468 | 4875 ft | 273 kts | 104° |
| 2026-04-25 20:02 | 14.48137 | -16.92590 | 4984 ft | 274 kts | 104° |
| 2026-04-25 20:02 | 14.47580 | -16.90710 | 4995 ft | 273 kts | 94° |
| 2026-04-25 20:02 | 14.47221 | -16.88872 | 5011 ft | 262 kts | 81° |
| 2026-04-25 20:02 | 14.47164 | -16.86998 | 4971 ft | 272 kts | 79° |
| 2026-04-25 20:03 | 14.47083 | -16.85012 | 4981 ft | 283 kts | 83° |
| 2026-04-25 20:03 | 14.46760 | -16.82990 | 4982 ft | 286 kts | 90° |
| 2026-04-25 20:03 | 14.46275 | -16.80995 | 4976 ft | 291 kts | 109° |
| 2026-04-25 20:03 | 14.45183 | -16.79241 | 4983 ft | 293 kts | 131° |
| 2026-04-25 20:04 | 14.43511 | -16.78058 | 4977 ft | 295 kts | 157° |
| 2026-04-25 20:04 | 14.42174 | -16.77704 | 4980 ft | 293 kts | 174° |
| 2026-04-25 20:04 | 14.39488 | -16.77702 | 4977 ft | 292 kts | 184° |
| 2026-04-25 20:04 | 14.37461 | -16.77830 | 4974 ft | 292 kts | 184° |
| 2026-04-25 20:05 | 14.36118 | -16.77919 | 4980 ft | 291 kts | 184° |
| 2026-04-25 20:05 | 14.33975 | -16.78063 | 4979 ft | 291 kts | 184° |
| 2026-04-25 20:05 | 14.32040 | -16.78193 | 4980 ft | 292 kts | 184° |
| 2026-04-25 20:05 | 14.30043 | -16.78334 | 4976 ft | 293 kts | 184° |
| 2026-04-25 20:06 | 14.27967 | -16.78479 | 4982 ft | 296 kts | 184° |
| 2026-04-25 20:06 | 14.25948 | -16.78629 | 4980 ft | 295 kts | 185° |
| 2026-04-25 20:06 | 14.23899 | -16.78774 | 4983 ft | 294 kts | 184° |
| 2026-04-25 20:06 | 14.21868 | -16.78924 | 4980 ft | 293 kts | 184° |
| 2026-04-25 20:07 | 14.19831 | -16.79069 | 4985 ft | 295 kts | 184° |
| 2026-04-25 20:07 | 14.17787 | -16.79215 | 4981 ft | 294 kts | 184° |
| 2026-04-25 20:07 | 14.15742 | -16.79356 | 4982 ft | 296 kts | 184° |
| 2026-04-25 20:07 | 14.13682 | -16.79493 | 4983 ft | 296 kts | 184° |
| 2026-04-25 20:08 | 14.11637 | -16.79632 | 4980 ft | 295 kts | 184° |
| 2026-04-25 20:08 | 14.09591 | -16.79771 | 4982 ft | 293 kts | 184° |
| 2026-04-25 20:08 | 14.07564 | -16.79909 | 4982 ft | 293 kts | 184° |
| 2026-04-25 20:08 | 14.05520 | -16.80050 | 4983 ft | 294 kts | 184° |
| 2026-04-25 20:09 | 14.03486 | -16.80186 | 4986 ft | 294 kts | 184° |
| 2026-04-25 20:09 | 14.01439 | -16.80324 | 4985 ft | 295 kts | 184° |
| 2026-04-25 20:09 | 13.99393 | -16.80464 | 4983 ft | 293 kts | 184° |
| 2026-04-25 20:09 | 13.97356 | -16.80602 | 4985 ft | 293 kts | 184° |
| 2026-04-25 20:10 | 13.95324 | -16.80770 | 4978 ft | 293 kts | 188° |
| 2026-04-25 20:10 | 13.93381 | -16.81357 | 4984 ft | 292 kts | 207° |
| 2026-04-25 20:10 | 13.91785 | -16.82596 | 4801 ft | 284 kts | 232° |
| 2026-04-25 20:10 | 13.90913 | -16.84372 | 4315 ft | 278 kts | 262° |
| 2026-04-25 20:11 | 13.90981 | -16.86302 | 4041 ft | 268 kts | 290° |
| 2026-04-25 20:11 | 13.91847 | -16.87952 | 3986 ft | 261 kts | 314° |
| 2026-04-25 20:11 | 13.93266 | -16.89092 | 3986 ft | 260 kts | 334° |
| 2026-04-25 20:11 | 13.94921 | -16.89808 | 3984 ft | 257 kts | 341° |
| 2026-04-25 20:12 | 13.96603 | -16.90433 | 3982 ft | 258 kts | 341° |
| 2026-04-25 20:12 | 13.98294 | -16.91076 | 3993 ft | 259 kts | 340° |
| 2026-04-25 20:12 | 13.99982 | -16.91736 | 3990 ft | 260 kts | 340° |
| 2026-04-25 20:12 | 14.01100 | -16.92178 | 3990 ft | 259 kts | 340° |
| 2026-04-25 20:13 | 14.03346 | -16.93077 | 3994 ft | 259 kts | 340° |
| 2026-04-25 20:13 | 14.05022 | -16.93752 | 3990 ft | 258 kts | 340° |
| 2026-04-25 20:13 | 14.06696 | -16.94428 | 3989 ft | 260 kts | 340° |
| 2026-04-25 20:13 | 14.08388 | -16.95111 | 3991 ft | 262 kts | 340° |
| 2026-04-25 20:14 | 14.10076 | -16.95794 | 3994 ft | 260 kts | 340° |
| 2026-04-25 20:14 | 14.11754 | -16.96474 | 3992 ft | 258 kts | 340° |
| 2026-04-25 20:14 | 14.13426 | -16.97151 | 3991 ft | 259 kts | 339° |
| 2026-04-25 20:14 | 14.15102 | -16.97830 | 3995 ft | 259 kts | 340° |
| 2026-04-25 20:15 | 14.16785 | -16.98512 | 3991 ft | 260 kts | 340° |
| 2026-04-25 20:15 | 14.18467 | -16.99194 | 3991 ft | 260 kts | 339° |
| 2026-04-25 20:15 | 14.20147 | -16.99876 | 3993 ft | 258 kts | 340° |
| 2026-04-25 20:15 | 14.21815 | -17.00552 | 3992 ft | 258 kts | 340° |
| 2026-04-25 20:16 | 14.23488 | -17.01231 | 3992 ft | 259 kts | 340° |
| 2026-04-25 20:16 | 14.25170 | -17.01912 | 3993 ft | 260 kts | 339° |
| 2026-04-25 20:16 | 14.26830 | -17.02585 | 3992 ft | 260 kts | 339° |
| 2026-04-25 20:16 | 14.28510 | -17.03268 | 3992 ft | 259 kts | 340° |
| 2026-04-25 20:17 | 14.30200 | -17.03954 | 3991 ft | 258 kts | 340° |
| 2026-04-25 20:17 | 14.31859 | -17.04626 | 3990 ft | 259 kts | 339° |
| 2026-04-25 20:17 | 14.33536 | -17.05307 | 3997 ft | 260 kts | 339° |
| 2026-04-25 20:17 | 14.35217 | -17.05990 | 3997 ft | 259 kts | 339° |
| 2026-04-25 20:18 | 14.36920 | -17.06572 | 3999 ft | 257 kts | 348° |
| 2026-04-25 20:18 | 14.38645 | -17.06806 | 3991 ft | 241 kts | 357° |
| 2026-04-25 20:18 | 14.40263 | -17.06835 | 3987 ft | 223 kts | 360° |
| 2026-04-25 20:18 | 14.41751 | -17.06843 | 3991 ft | 206 kts | 359° |
| 2026-04-25 20:19 | 14.43118 | -17.06859 | 4004 ft | 187 kts | 359° |
| 2026-04-25 20:19 | 14.44385 | -17.06883 | 4014 ft | 180 kts | 359° |
| 2026-04-25 20:19 | 14.45643 | -17.06911 | 3984 ft | 181 kts | 359° |
| 2026-04-25 20:19 | 14.46901 | -17.06945 | 3810 ft | 181 kts | 359° |
| 2026-04-25 20:20 | 14.48155 | -17.06965 | 3580 ft | 180 kts | 359° |
| 2026-04-25 20:20 | 14.49402 | -17.06984 | 3326 ft | 178 kts | 359° |
| 2026-04-25 20:20 | 14.50638 | -17.07004 | 3090 ft | 179 kts | 359° |
| 2026-04-25 20:20 | 14.51884 | -17.07024 | 2847 ft | 179 kts | 0° |
| 2026-04-25 20:21 | 14.53127 | -17.07043 | 2628 ft | 176 kts | 359° |
| 2026-04-25 20:21 | 14.54346 | -17.07064 | 2404 ft | 175 kts | 0° |
| 2026-04-25 20:21 | 14.55562 | -17.07084 | 2180 ft | 174 kts | 0° |
| 2026-04-25 20:21 | 14.56772 | -17.07104 | 1962 ft | 175 kts | 1° |
| 2026-04-25 20:22 | 14.58001 | -17.07159 | 1735 ft | 178 kts | 356° |
| 2026-04-25 20:22 | 14.58818 | -17.07229 | 1552 ft | 178 kts | 359° |
| 2026-04-25 20:22 | 14.60456 | -17.07187 | 1328 ft | 175 kts | 358° |
| 2026-04-25 20:22 | 14.61665 | -17.07238 | 1028 ft | 170 kts | 357° |
| 2026-04-25 20:23 | 14.62802 | -17.07238 | 820 ft | 156 kts | 357° |
| 2026-04-25 20:23 | 14.63870 | -17.07257 | 656 ft | 151 kts | 0° |
| 2026-04-25 20:23 | 14.64884 | -17.07266 | 465 ft | 143 kts | 360° |
| 2026-04-25 20:23 | 14.65835 | -17.07272 | 314 ft | 130 kts | 358° |
| 2026-04-25 20:24 | 14.66647 | -17.07277 | 300 ft | 99 kts | 359° |
| 2026-04-25 20:24 | 14.67236 | -17.07282 | 300 ft | 71 kts | 357° |
| 2026-04-25 20:24 | 14.67662 | -17.07285 | 299 ft | 54 kts | 359° |
| 2026-04-25 20:24 | 14.68009 | -17.07291 | 301 ft | 45 kts | 356° |
| 2026-04-25 20:25 | 14.68316 | -17.07297 | 303 ft | 45 kts | 0° |
| 2026-04-25 20:25 | 14.68551 | -17.07271 | 305 ft | 8 kts | 40° |
| 2026-04-25 20:25 | 14.68573 | -17.07186 | 301 ft | 23 kts | 82° |
| 2026-04-25 20:25 | 14.68536 | -17.07107 | 303 ft | 10 kts | 159° |
| 2026-04-25 20:26 | 14.68459 | -17.07109 | 302 ft | 12 kts | 179° |
| 2026-04-25 20:26 | 14.68362 | -17.07104 | 300 ft | 17 kts | 179° |
| 2026-04-25 20:26 | 14.68217 | -17.07101 | 302 ft | 18 kts | 179° |
| 2026-04-25 20:26 | 14.68077 | -17.07101 | 303 ft | 23 kts | 181° |
| 2026-04-25 20:27 | 14.67898 | -17.07103 | 301 ft | 29 kts | 180° |
| 2026-04-25 20:27 | 14.67683 | -17.07097 | 299 ft | 32 kts | 177° |
| 2026-04-25 20:27 | 14.67451 | -17.07089 | 301 ft | 34 kts | 181° |
| 2026-04-25 20:27 | 14.67206 | -17.07092 | 302 ft | 32 kts | 178° |
| 2026-04-25 20:28 | 14.67096 | -17.07051 | 304 ft | 14 kts | 124° |
| 2026-04-25 20:28 | 14.67077 | -17.06951 | 302 ft | 16 kts | 88° |
| 2026-04-25 20:28 | 14.67079 | -17.06861 | 302 ft | 0 kts | 89° |